Wetterdaten: Freitag, 14.02.2020
Datum Zeit Temp. Aussen Temp. o. S. Temp +5cm Feuchte Auss Luftdruck Regen Sonnenschein Regendauer Solar Windben Empfang
14.02.2020 00:00 6,5 C 5,6 C 5,0 C 98 % 1005,0 hPa 0,0 l/m 0 min 0 min 0 W/m 6,4 km/h (2 Bft) 100,00 %
14.02.2020 00:02 6,5 C 5,6 C 5,0 C 98 % 1005,0 hPa 0,0 l/m 0 min 0 min 0 W/m 3,2 km/h (1 Bft) 4,76 %
14.02.2020 00:04 6,5 C 5,6 C 5,0 C 98 % 1005,0 hPa 0,0 l/m 0 min 0 min 0 W/m 16,1 km/h (3 Bft) 94,44 %
14.02.2020 00:08 6,5 C 5,6 C 5,0 C 98 % 1005,2 hPa 0,0 l/m 0 min 4 min 0 W/m 6,4 km/h (2 Bft) 100,00 %
14.02.2020 00:10 6,5 C 5,6 C 5,0 C 98 % 1005,3 hPa 0,0 l/m 0 min 0 min 0 W/m 0,0 km/h (0 Bft) 100,00 %
14.02.2020 00:12 6,5 C 5,6 C 5,0 C 98 % 1005,4 hPa 0,0 l/m 0 min 0 min 0 W/m 6,4 km/h (2 Bft) 100,00 %
14.02.2020 00:14 6,5 C 5,6 C 5,0 C 98 % 1005,4 hPa 0,0 l/m 0 min 0 min 0 W/m 3,2 km/h (1 Bft) 97,87 %
14.02.2020 00:16 6,5 C 5,6 C 5,0 C 98 % 1005,5 hPa 0,0 l/m 0 min 0 min 0 W/m 19,3 km/h (3 Bft) 97,87 %
14.02.2020 00:18 6,5 C 5,6 C 5,0 C 98 % 1005,6 hPa 0,0 l/m 0 min 0 min 0 W/m 3,2 km/h (1 Bft) 97,83 %
14.02.2020 00:20 6,5 C 5,6 C 5,0 C 98 % 1005,6 hPa 0,0 l/m 0 min 0 min 0 W/m 3,2 km/h (1 Bft) 97,87 %
14.02.2020 00:22 6,5 C 5,6 C 5,0 C 98 % 1005,6 hPa 0,0 l/m 0 min 0 min 0 W/m 12,9 km/h (3 Bft) 93,62 %
14.02.2020 00:24 6,5 C 5,6 C 5,0 C 98 % 1005,7 hPa 0,0 l/m 0 min 0 min 0 W/m 3,2 km/h (1 Bft) 95,74 %
14.02.2020 00:26 6,5 C 5,6 C 5,0 C 98 % 1005,7 hPa 0,0 l/m 0 min 0 min 0 W/m 6,4 km/h (2 Bft) 95,74 %
14.02.2020 00:28 6,5 C 5,6 C 5,0 C 98 % 1005,8 hPa 0,0 l/m 0 min 0 min 0 W/m 12,9 km/h (3 Bft) 93,48 %
14.02.2020 00:30 6,5 C 5,6 C 5,0 C 98 % 1005,9 hPa 0,0 l/m 0 min 0 min 0 W/m 3,2 km/h (1 Bft) 95,74 %
14.02.2020 00:32 6,5 C 5,6 C 5,0 C 98 % 1006,0 hPa 0,0 l/m 0 min 0 min 0 W/m 6,4 km/h (2 Bft) 95,74 %
14.02.2020 00:34 6,6 C 5,6 C 5,0 C 98 % 1006,1 hPa 0,0 l/m 0 min 0 min 0 W/m 12,9 km/h (3 Bft) 95,74 %
14.02.2020 00:36 6,6 C 5,6 C 5,0 C 98 % 1006,2 hPa 0,0 l/m 0 min 0 min 0 W/m 6,4 km/h (2 Bft) 95,74 %
14.02.2020 00:38 6,6 C 5,6 C 5,0 C 98 % 1006,2 hPa 0,0 l/m 0 min 0 min 0 W/m 6,4 km/h (2 Bft) 95,74 %
14.02.2020 00:40 6,6 C 5,6 C 5,0 C 98 % 1006,3 hPa 0,0 l/m 0 min 0 min 0 W/m 3,2 km/h (1 Bft) 93,48 %
14.02.2020 00:42 6,6 C 5,6 C 5,0 C 98 % 1006,4 hPa 0,0 l/m 0 min 0 min 0 W/m 6,4 km/h (2 Bft) 95,74 %
14.02.2020 00:44 6,6 C 5,6 C 5,0 C 98 % 1006,5 hPa 0,0 l/m 0 min 0 min 0 W/m 9,7 km/h (2 Bft) 93,62 %
14.02.2020 00:46 6,6 C 5,6 C 5,0 C 98 % 1006,7 hPa 0,0 l/m 0 min 0 min 0 W/m 3,2 km/h (1 Bft) 95,74 %
14.02.2020 00:48 6,6 C 5,6 C 5,0 C 98 % 1006,7 hPa 0,0 l/m 0 min 0 min 0 W/m 6,4 km/h (2 Bft) 95,74 %
14.02.2020 00:50 6,6 C 5,6 C 5,0 C 98 % 1006,9 hPa 0,0 l/m 0 min 0 min 0 W/m 6,4 km/h (2 Bft) 95,74 %
14.02.2020 00:52 6,6 C 5,6 C 5,0 C 98 % 1007,0 hPa 0,0 l/m 0 min 0 min 0 W/m 3,2 km/h (1 Bft) 95,65 %
14.02.2020 00:54 6,6 C 5,6 C 5,0 C 98 % 1007,0 hPa 0,0 l/m 0 min 0 min 0 W/m 19,3 km/h (3 Bft) 95,74 %
14.02.2020 00:56 6,6 C 5,6 C 5,0 C 98 % 1007,1 hPa 0,0 l/m 0 min 0 min 0 W/m 6,4 km/h (2 Bft) 93,62 %
14.02.2020 00:58 6,6 C 5,6 C 5,0 C 98 % 1007,1 hPa 0,0 l/m 0 min 0 min 0 W/m 0,0 km/h (0 Bft) 93,62 %
14.02.2020 01:00 6,6 C 5,6 C 5,0 C 98 % 1007,2 hPa 0,0 l/m 0 min 0 min 0 W/m 0,0 km/h (0 Bft) 97,87 %
14.02.2020 01:02 6,6 C 5,6 C 5,0 C 98 % 1007,3 hPa 0,0 l/m 0 min 0 min 0 W/m 3,2 km/h (1 Bft) 95,74 %
14.02.2020 01:04 6,6 C 5,6 C 5,0 C 98 % 1007,3 hPa 0,0 l/m 0 min 0 min 0 W/m 3,2 km/h (1 Bft) 97,83 %
14.02.2020 01:06 6,6 C 5,6 C 5,0 C 98 % 1007,4 hPa 0,0 l/m 0 min 0 min 0 W/m 9,7 km/h (2 Bft) 100,00 %
14.02.2020 01:08 6,6 C 5,6 C 5,0 C 98 % 1007,5 hPa 0,0 l/m 0 min 0 min 0 W/m 9,7 km/h (2 Bft) 100,00 %
14.02.2020 01:10 6,6 C 5,6 C 5,0 C 98 % 1007,6 hPa 0,0 l/m 0 min 0 min 0 W/m 0,0 km/h (0 Bft) 100,00 %
14.02.2020 01:12 6,6 C 5,6 C 5,0 C 98 % 1007,6 hPa 0,0 l/m 0 min 0 min 0 W/m 3,2 km/h (1 Bft) 100,00 %
14.02.2020 01:14 6,7 C 5,6 C 5,0 C 98 % 1007,7 hPa 0,0 l/m 0 min 0 min 0 W/m 0,0 km/h (0 Bft) 100,00 %
14.02.2020 01:16 6,7 C 5,6 C 5,0 C 98 % 1007,8 hPa 0,0 l/m 0 min 0 min 0 W/m 3,2 km/h (1 Bft) 97,83 %
14.02.2020 01:18 6,7 C 5,6 C 5,0 C 98 % 1007,9 hPa 0,0 l/m 0 min 0 min 0 W/m 3,2 km/h (1 Bft) 100,00 %
14.02.2020 01:20 6,7 C 5,6 C 5,0 C 98 % 1007,9 hPa 0,0 l/m 0 min 0 min 0 W/m 0,0 km/h (0 Bft) 100,00 %
14.02.2020 01:22 6,7 C 5,6 C 5,0 C 98 % 1008,0 hPa 0,0 l/m 0 min 0 min 0 W/m 6,4 km/h (2 Bft) 100,00 %
14.02.2020 01:24 6,7 C 5,6 C 5,0 C 98 % 1008,0 hPa 0,0 l/m 0 min 0 min 0 W/m 3,2 km/h (1 Bft) 100,00 %
14.02.2020 01:26 6,6 C 5,6 C 5,0 C 98 % 1008,2 hPa 0,0 l/m 0 min 0 min 0 W/m 12,9 km/h (3 Bft) 100,00 %
14.02.2020 01:28 6,6 C 5,6 C 5,0 C 98 % 1008,1 hPa 0,0 l/m 0 min 0 min 0 W/m 9,7 km/h (2 Bft) 100,00 %
14.02.2020 01:30 6,6 C 5,6 C 5,0 C 98 % 1008,2 hPa 0,0 l/m 0 min 0 min 0 W/m 6,4 km/h (2 Bft) 100,00 %
14.02.2020 01:32 6,6 C 5,6 C 5,0 C 98 % 1008,4 hPa 0,0 l/m 0 min 0 min 0 W/m 12,9 km/h (3 Bft) 95,74 %
14.02.2020 01:34 6,6 C 5,6 C 5,0 C 98 % 1008,2 hPa 0,0 l/m 0 min 0 min 0 W/m 0,0 km/h (0 Bft) 100,00 %
14.02.2020 01:36 6,6 C 5,6 C 5,0 C 98 % 1008,4 hPa 0,0 l/m 0 min 0 min 0 W/m 6,4 km/h (2 Bft) 100,00 %
14.02.2020 01:38 6,6 C 5,6 C 5,0 C 98 % 1008,4 hPa 0,0 l/m 0 min 0 min 0 W/m 3,2 km/h (1 Bft) 100,00 %
14.02.2020 01:40 6,6 C 5,6 C 5,0 C 98 % 1008,4 hPa 0,0 l/m 0 min 0 min 0 W/m 6,4 km/h (2 Bft) 100,00 %
14.02.2020 01:42 6,6 C 5,6 C 5,0 C 98 % 1008,5 hPa 0,0 l/m 0 min 0 min 0 W/m 3,2 km/h (1 Bft) 97,87 %
14.02.2020 01:44 6,6 C 5,6 C 5,0 C 98 % 1008,7 hPa 0,0 l/m 0 min 0 min 0 W/m 12,9 km/h (3 Bft) 100,00 %
14.02.2020 01:46 6,6 C 5,6 C 5,0 C 98 % 1008,6 hPa 0,0 l/m 0 min 0 min 0 W/m 16,1 km/h (3 Bft) 100,00 %
14.02.2020 01:48 6,6 C 5,6 C 5,0 C 98 % 1008,7 hPa 0,0 l/m 0 min 0 min 0 W/m 3,2 km/h (1 Bft) 100,00 %
14.02.2020 01:50 6,6 C 5,6 C 5,0 C 98 % 1008,7 hPa 0,0 l/m 0 min 0 min 0 W/m 3,2 km/h (1 Bft) 100,00 %
14.02.2020 01:52 6,6 C 5,6 C 5,0 C 98 % 1008,7 hPa 0,0 l/m 0 min 0 min 0 W/m 3,2 km/h (1 Bft) 100,00 %
14.02.2020 01:54 6,5 C 5,6 C 5,0 C 98 % 1008,8 hPa 0,0 l/m 0 min 0 min 0 W/m 6,4 km/h (2 Bft) 97,87 %
14.02.2020 01:56 6,5 C 5,6 C 5,0 C 98 % 1008,9 hPa 0,0 l/m 0 min 0 min 0 W/m 0,0 km/h (0 Bft) 97,87 %
14.02.2020 01:58 6,5 C 5,6 C 5,0 C 98 % 1008,9 hPa 0,0 l/m 0 min 0 min 0 W/m 0,0 km/h (0 Bft) 100,00 %
14.02.2020 02:00 6,5 C 5,6 C 5,0 C 98 % 1009,0 hPa 0,0 l/m 0 min 0 min 0 W/m 12,9 km/h (3 Bft) 100,00 %
14.02.2020 02:02 6,5 C 5,6 C 5,0 C 98 % 1009,0 hPa 0,0 l/m 0 min 0 min 0 W/m 6,4 km/h (2 Bft) 100,00 %
14.02.2020 02:04 6,5 C 5,6 C 5,0 C 98 % 1009,0 hPa 0,0 l/m 0 min 0 min 0 W/m 3,2 km/h (1 Bft) 100,00 %
14.02.2020 02:06 6,4 C 5,6 C 5,0 C 98 % 1009,1 hPa 0,0 l/m 0 min 0 min 0 W/m 6,4 km/h (2 Bft) 100,00 %
14.02.2020 02:08 6,4 C 5,6 C 5,0 C 98 % 1009,1 hPa 0,0 l/m 0 min 0 min 0 W/m 12,9 km/h (3 Bft) 100,00 %
14.02.2020 02:10 6,4 C 5,6 C 5,0 C 98 % 1009,2 hPa 0,0 l/m 0 min 0 min 0 W/m 6,4 km/h (2 Bft) 100,00 %
14.02.2020 02:12 6,4 C 5,6 C 5,0 C 98 % 1009,2 hPa 0,0 l/m 0 min 0 min 0 W/m 3,2 km/h (1 Bft) 100,00 %
14.02.2020 02:14 6,4 C 5,6 C 5,0 C 98 % 1009,3 hPa 0,0 l/m 0 min 0 min 0 W/m 3,2 km/h (1 Bft) 100,00 %
14.02.2020 02:16 6,4 C 5,0 C 4,4 C 98 % 1009,3 hPa 0,0 l/m 0 min 0 min 0 W/m 0,0 km/h (0 Bft) 100,00 %
14.02.2020 02:18 6,3 C 5,0 C 4,4 C 98 % 1009,4 hPa 0,0 l/m 0 min 0 min 0 W/m 0,0 km/h (0 Bft) 100,00 %
14.02.2020 02:20 6,3 C 5,0 C 4,4 C 98 % 1009,4 hPa 0,0 l/m 0 min 0 min 0 W/m 0,0 km/h (0 Bft) 95,74 %
14.02.2020 02:22 6,3 C 5,0 C 4,4 C 98 % 1009,4 hPa 0,0 l/m 0 min 0 min 0 W/m 6,4 km/h (2 Bft) 97,87 %
14.02.2020 02:24 6,3 C 5,0 C 4,4 C 98 % 1009,5 hPa 0,0 l/m 0 min 0 min 0 W/m 3,2 km/h (1 Bft) 97,87 %
14.02.2020 02:26 6,3 C 5,0 C 4,4 C 98 % 1009,6 hPa 0,0 l/m 0 min 0 min 0 W/m 3,2 km/h (1 Bft) 44,74 %
14.02.2020 02:28 6,2 C 5,0 C 4,4 C 98 % 1009,6 hPa 0,0 l/m 0 min 0 min 0 W/m 0,0 km/h (0 Bft) 97,87 %
14.02.2020 02:30 6,2 C 5,0 C 4,4 C 98 % 1009,7 hPa 0,0 l/m 0 min 0 min 0 W/m 3,2 km/h (1 Bft) 95,74 %
14.02.2020 02:32 6,2 C 5,0 C 4,4 C 97 % 1009,7 hPa 0,0 l/m 0 min 0 min 0 W/m 0,0 km/h (0 Bft) 97,87 %
14.02.2020 02:34 6,2 C 5,0 C 4,4 C 97 % 1009,7 hPa 0,0 l/m 0 min 0 min 0 W/m 0,0 km/h (0 Bft) 97,87 %
14.02.2020 02:36 6,2 C 5,0 C 4,4 C 97 % 1009,7 hPa 0,0 l/m 0 min 0 min 0 W/m 3,2 km/h (1 Bft) 97,87 %
14.02.2020 02:38 6,2 C 5,0 C 4,4 C 97 % 1009,8 hPa 0,0 l/m 0 min 0 min 0 W/m 6,4 km/h (2 Bft) 97,83 %
14.02.2020 02:40 6,2 C 5,0 C 4,4 C 97 % 1009,8 hPa 0,0 l/m 0 min 0 min 0 W/m 3,2 km/h (1 Bft) 97,87 %
14.02.2020 02:42 6,2 C 5,0 C 4,4 C 97 % 1009,8 hPa 0,0 l/m 0 min 0 min 0 W/m 3,2 km/h (1 Bft) 95,74 %
14.02.2020 02:44 6,2 C 5,0 C 4,4 C 97 % 1009,8 hPa 0,0 l/m 0 min 0 min 0 W/m 3,2 km/h (1 Bft) 97,87 %
14.02.2020 02:46 6,2 C 5,0 C 4,4 C 97 % 1009,8 hPa 0,0 l/m 0 min 0 min 0 W/m 3,2 km/h (1 Bft) 97,87 %
14.02.2020 02:48 6,1 C 5,0 C 4,4 C 97 % 1009,9 hPa 0,0 l/m 0 min 0 min 0 W/m 3,2 km/h (1 Bft) 97,87 %
14.02.2020 02:50 6,1 C 5,0 C 4,4 C 97 % 1009,9 hPa 0,0 l/m 0 min 0 min 0 W/m 9,7 km/h (2 Bft) 95,65 %
14.02.2020 02:52 6,1 C 5,0 C 4,4 C 97 % 1010,0 hPa 0,0 l/m 0 min 0 min 0 W/m 12,9 km/h (3 Bft) 97,87 %
14.02.2020 02:54 6,1 C 5,0 C 4,4 C 97 % 1010,0 hPa 0,0 l/m 0 min 0 min 0 W/m 0,0 km/h (0 Bft) 97,87 %
14.02.2020 02:56 6,1 C 5,0 C 4,4 C 97 % 1010,1 hPa 0,0 l/m 0 min 0 min 0 W/m 0,0 km/h (0 Bft) 95,74 %
14.02.2020 02:58 6,1 C 5,0 C 4,4 C 97 % 1010,1 hPa 0,0 l/m 0 min 0 min 0 W/m 0,0 km/h (0 Bft) 91,49 %
14.02.2020 03:00 6,1 C 5,0 C 4,4 C 97 % 1010,2 hPa 0,0 l/m 0 min 0 min 0 W/m 3,2 km/h (1 Bft) 93,62 %
14.02.2020 03:02 6,1 C 5,0 C 4,4 C 97 % 1010,2 hPa 0,0 l/m 0 min 0 min 0 W/m 3,2 km/h (1 Bft) 93,62 %
14.02.2020 03:04 6,1 C 5,0 C 4,4 C 97 % 1010,2 hPa 0,0 l/m 0 min 0 min 0 W/m 0,0 km/h (0 Bft) 93,62 %
14.02.2020 03:06 6,1 C 5,0 C 4,4 C 97 % 1010,2 hPa 0,0 l/m 0 min 0 min 0 W/m 0,0 km/h (0 Bft) 93,62 %
14.02.2020 03:08 6,1 C 5,0 C 4,4 C 97 % 1010,3 hPa 0,0 l/m 0 min 0 min 0 W/m 0,0 km/h (0 Bft) 91,49 %
14.02.2020 03:10 6,1 C 5,0 C 4,4 C 97 % 1010,3 hPa 0,0 l/m 0 min 0 min 0 W/m 0,0 km/h (0 Bft) 93,62 %
14.02.2020 03:12 6,1 C 5,0 C 4,4 C 97 % 1010,4 hPa 0,0 l/m 0 min 0 min 0 W/m 0,0 km/h (0 Bft) 93,48 %
14.02.2020 03:14 6,1 C 5,0 C 4,4 C 97 % 1010,4 hPa 0,0 l/m 0 min 0 min 0 W/m 0,0 km/h (0 Bft) 91,49 %
14.02.2020 03:16 6,1 C 5,0 C 4,4 C 97 % 1010,4 hPa 0,0 l/m 0 min 0 min 0 W/m 0,0 km/h (0 Bft) 91,49 %
14.02.2020 03:18 6,1 C 5,0 C 4,4 C 97 % 1010,5 hPa 0,0 l/m 0 min 0 min 0 W/m 0,0 km/h (0 Bft) 93,62 %
14.02.2020 03:20 6,1 C 5,0 C 4,4 C 97 % 1010,5 hPa 0,0 l/m 0 min 0 min 0 W/m 0,0 km/h (0 Bft) 95,74 %
14.02.2020 03:22 6,1 C 5,0 C 4,4 C 97 % 1010,5 hPa 0,0 l/m 0 min 0 min 0 W/m 0,0 km/h (0 Bft) 93,62 %
14.02.2020 03:24 6,1 C 5,0 C 4,4 C 97 % 1010,6 hPa 0,0 l/m 0 min 0 min 0 W/m 0,0 km/h (0 Bft) 95,74 %
14.02.2020 03:26 6,1 C 5,0 C 4,4 C 97 % 1010,6 hPa 0,0 l/m 0 min 0 min 0 W/m 0,0 km/h (0 Bft) 95,83 %
14.02.2020 03:28 6,1 C 5,0 C 4,4 C 97 % 1010,7 hPa 0,0 l/m 0 min 0 min 0 W/m 0,0 km/h (0 Bft) 95,83 %
14.02.2020 03:30 6,1 C 5,0 C 4,4 C 97 % 1010,7 hPa 0,0 l/m 0 min 0 min 0 W/m 3,2 km/h (1 Bft) 95,74 %
14.02.2020 03:32 6,1 C 5,0 C 4,4 C 97 % 1010,7 hPa 0,0 l/m 0 min 2 min 0 W/m 0,0 km/h (0 Bft) 93,62 %
14.02.2020 03:34 6,1 C 5,0 C 4,4 C 97 % 1010,8 hPa 0,0 l/m 0 min 2 min 0 W/m 3,2 km/h (1 Bft) 95,65 %
14.02.2020 03:36 6,1 C 5,0 C 4,4 C 97 % 1010,8 hPa 0,0 l/m 0 min 0 min 0 W/m 0,0 km/h (0 Bft) 97,92 %
14.02.2020 03:38 6,1 C 5,0 C 4,4 C 97 % 1010,9 hPa 0,0 l/m 0 min 0 min 0 W/m 0,0 km/h (0 Bft) 95,83 %
14.02.2020 03:40 6,1 C 5,0 C 4,4 C 97 % 1010,8 hPa 0,0 l/m 0 min 0 min 0 W/m 3,2 km/h (1 Bft) 95,65 %
14.02.2020 03:42 6,1 C 5,0 C 4,4 C 97 % 1010,8 hPa 0,0 l/m 0 min 0 min 0 W/m 3,2 km/h (1 Bft) 95,74 %
14.02.2020 03:44 6,1 C 5,0 C 4,4 C 97 % 1011,0 hPa 0,0 l/m 0 min 0 min 0 W/m 9,7 km/h (2 Bft) 97,87 %
14.02.2020 03:46 6,1 C 5,0 C 4,4 C 97 % 1010,8 hPa 0,0 l/m 0 min 0 min 0 W/m 0,0 km/h (0 Bft) 100,00 %
14.02.2020 03:48 6,1 C 5,0 C 4,4 C 97 % 1010,9 hPa 0,0 l/m 0 min 0 min 0 W/m 12,9 km/h (3 Bft) 100,00 %
14.02.2020 03:50 6,1 C 5,0 C 4,4 C 97 % 1010,8 hPa 0,0 l/m 0 min 0 min 0 W/m 3,2 km/h (1 Bft) 100,00 %
14.02.2020 03:52 6,1 C 5,0 C 4,4 C 97 % 1010,9 hPa 0,0 l/m 0 min 2 min 0 W/m 0,0 km/h (0 Bft) 100,00 %
14.02.2020 03:54 6,1 C 5,0 C 4,4 C 97 % 1010,9 hPa 0,0 l/m 0 min 0 min 0 W/m 6,4 km/h (2 Bft) 100,00 %
14.02.2020 03:56 6,1 C 5,0 C 4,4 C 97 % 1010,9 hPa 0,0 l/m 0 min 2 min 0 W/m 9,7 km/h (2 Bft) 100,00 %
14.02.2020 03:58 6,1 C 5,0 C 4,4 C 97 % 1011,0 hPa 0,0 l/m 0 min 2 min 0 W/m 0,0 km/h (0 Bft) 100,00 %
14.02.2020 04:00 6,1 C 5,0 C 4,4 C 97 % 1011,0 hPa 0,0 l/m 0 min 2 min 0 W/m 0,0 km/h (0 Bft) 100,00 %
14.02.2020 04:02 6,1 C 5,0 C 4,4 C 97 % 1011,0 hPa 0,0 l/m 0 min 2 min 0 W/m 0,0 km/h (0 Bft) 100,00 %
14.02.2020 04:04 6,1 C 5,0 C 4,4 C 97 % 1011,0 hPa 0,0 l/m 0 min 2 min 0 W/m 16,1 km/h (3 Bft) 100,00 %
14.02.2020 04:06 6,1 C 5,0 C 4,4 C 97 % 1011,1 hPa 0,0 l/m 0 min 2 min 0 W/m 0,0 km/h (0 Bft) 95,65 %
14.02.2020 04:08 6,1 C 5,0 C 4,4 C 97 % 1011,2 hPa 0,0 l/m 0 min 0 min 0 W/m 9,7 km/h (2 Bft) 100,00 %
14.02.2020 04:10 6,1 C 5,0 C 4,4 C 97 % 1011,2 hPa 0,0 l/m 0 min 0 min 0 W/m 12,9 km/h (3 Bft) 100,00 %
14.02.2020 04:12 6,1 C 5,0 C 4,4 C 97 % 1011,3 hPa 0,0 l/m 0 min 2 min 0 W/m 3,2 km/h (1 Bft) 100,00 %
14.02.2020 04:14 6,1 C 5,0 C 4,4 C 97 % 1011,3 hPa 0,0 l/m 0 min 0 min 0 W/m 12,9 km/h (3 Bft) 100,00 %
14.02.2020 04:16 6,1 C 5,0 C 4,4 C 97 % 1011,4 hPa 0,0 l/m 0 min 0 min 0 W/m 16,1 km/h (3 Bft) 97,83 %
14.02.2020 04:18 6,1 C 5,0 C 4,4 C 97 % 1011,4 hPa 0,0 l/m 0 min 0 min 0 W/m 0,0 km/h (0 Bft) 100,00 %
14.02.2020 04:20 6,1 C 5,0 C 4,4 C 97 % 1011,5 hPa 0,0 l/m 0 min 0 min 0 W/m 0,0 km/h (0 Bft) 100,00 %
14.02.2020 04:22 6,1 C 5,0 C 4,4 C 97 % 1011,5 hPa 0,0 l/m 0 min 0 min 0 W/m 9,7 km/h (2 Bft) 100,00 %
14.02.2020 04:24 6,0 C 5,0 C 4,4 C 97 % 1011,5 hPa 0,0 l/m 0 min 2 min 0 W/m 0,0 km/h (0 Bft) 100,00 %
14.02.2020 04:26 6,0 C 4,4 C 4,4 C 97 % 1011,5 hPa 0,0 l/m 0 min 2 min 0 W/m 3,2 km/h (1 Bft) 97,83 %
14.02.2020 04:28 6,0 C 4,4 C 4,4 C 97 % 1011,5 hPa 0,0 l/m 0 min 2 min 0 W/m 0,0 km/h (0 Bft) 100,00 %
14.02.2020 04:30 6,0 C 4,4 C 4,4 C 97 % 1011,6 hPa 0,0 l/m 0 min 0 min 0 W/m 6,4 km/h (2 Bft) 100,00 %
14.02.2020 04:32 5,9 C 4,4 C 4,4 C 97 % 1011,6 hPa 0,0 l/m 0 min 2 min 0 W/m 3,2 km/h (1 Bft) 100,00 %
14.02.2020 04:34 5,9 C 4,4 C 3,9 C 96 % 1011,7 hPa 0,0 l/m 0 min 2 min 0 W/m 0,0 km/h (0 Bft) 100,00 %
14.02.2020 04:36 5,9 C 4,4 C 3,9 C 96 % 1011,8 hPa 0,0 l/m 0 min 0 min 0 W/m 0,0 km/h (0 Bft) 100,00 %
14.02.2020 04:38 5,9 C 4,4 C 4,4 C 96 % 1011,8 hPa 0,0 l/m 0 min 0 min 0 W/m 0,0 km/h (0 Bft) 100,00 %
14.02.2020 04:40 5,9 C 4,4 C 4,4 C 96 % 1011,9 hPa 0,0 l/m 0 min 2 min 0 W/m 3,2 km/h (1 Bft) 97,92 %
14.02.2020 04:42 5,9 C 5,0 C 4,4 C 96 % 1012,0 hPa 0,0 l/m 0 min 2 min 0 W/m 3,2 km/h (1 Bft) 95,83 %
14.02.2020 04:44 5,9 C 4,4 C 4,4 C 96 % 1012,0 hPa 0,0 l/m 0 min 0 min 0 W/m 0,0 km/h (0 Bft) 100,00 %
14.02.2020 04:46 5,8 C 4,4 C 4,4 C 96 % 1012,0 hPa 0,0 l/m 0 min 2 min 0 W/m 0,0 km/h (0 Bft) 100,00 %
14.02.2020 04:48 5,8 C 4,4 C 4,4 C 96 % 1012,1 hPa 0,0 l/m 0 min 2 min 0 W/m 0,0 km/h (0 Bft) 100,00 %
14.02.2020 04:50 5,8 C 4,4 C 4,4 C 96 % 1012,2 hPa 0,0 l/m 0 min 2 min 0 W/m 0,0 km/h (0 Bft) 100,00 %
14.02.2020 04:52 5,8 C 4,4 C 4,4 C 96 % 1012,2 hPa 0,0 l/m 0 min 2 min 0 W/m 6,4 km/h (2 Bft) 100,00 %
14.02.2020 04:54 5,8 C 4,4 C 4,4 C 96 % 1012,3 hPa 0,0 l/m 0 min 2 min 0 W/m 3,2 km/h (1 Bft) 100,00 %
14.02.2020 04:56 5,8 C 4,4 C 4,4 C 96 % 1012,3 hPa 0,0 l/m 0 min 2 min 0 W/m 6,4 km/h (2 Bft) 100,00 %
14.02.2020 04:58 5,8 C 4,4 C 3,9 C 96 % 1012,3 hPa 0,0 l/m 0 min 2 min 0 W/m 3,2 km/h (1 Bft) 67,35 %
14.02.2020 05:00 5,8 C 4,4 C 3,9 C 96 % 1012,4 hPa 0,0 l/m 0 min 2 min 0 W/m 0,0 km/h (0 Bft) 88,89 %
14.02.2020 05:02 5,8 C 4,4 C 3,9 C 96 % 1012,3 hPa 0,0 l/m 0 min 2 min 0 W/m 0,0 km/h (0 Bft) 100,00 %
14.02.2020 05:04 5,8 C 4,4 C 3,9 C 96 % 1012,4 hPa 0,0 l/m 0 min 2 min 0 W/m 9,7 km/h (2 Bft) 100,00 %
14.02.2020 05:06 5,8 C 4,4 C 3,9 C 96 % 1012,5 hPa 0,0 l/m 0 min 2 min 0 W/m 0,0 km/h (0 Bft) 100,00 %
14.02.2020 05:08 5,8 C 4,4 C 3,9 C 96 % 1012,5 hPa 0,0 l/m 0 min 2 min 0 W/m 0,0 km/h (0 Bft) 97,87 %
14.02.2020 05:10 5,8 C 4,4 C 3,9 C 96 % 1012,5 hPa 0,0 l/m 0 min 2 min 0 W/m 3,2 km/h (1 Bft) 100,00 %
14.02.2020 05:12 5,8 C 4,4 C 3,9 C 96 % 1012,5 hPa 0,0 l/m 0 min 0 min 0 W/m 6,4 km/h (2 Bft) 97,87 %
14.02.2020 05:14 5,8 C 4,4 C 3,9 C 96 % 1012,6 hPa 0,0 l/m 0 min 0 min 0 W/m 6,4 km/h (2 Bft) 100,00 %
14.02.2020 05:16 5,8 C 4,4 C 3,9 C 96 % 1012,7 hPa 0,0 l/m 0 min 2 min 0 W/m 3,2 km/h (1 Bft) 97,92 %
14.02.2020 05:18 5,8 C 4,4 C 3,9 C 96 % 1012,7 hPa 0,2 l/m 0 min 2 min 0 W/m 9,7 km/h (2 Bft) 97,87 %
14.02.2020 05:20 5,8 C 4,4 C 3,9 C 97 % 1012,7 hPa 0,0 l/m 0 min 2 min 0 W/m 6,4 km/h (2 Bft) 100,00 %
14.02.2020 05:22 5,8 C 4,4 C 4,4 C 97 % 1012,8 hPa 0,0 l/m 0 min 2 min 0 W/m 3,2 km/h (1 Bft) 100,00 %
14.02.2020 05:24 5,8 C 4,4 C 4,4 C 97 % 1012,9 hPa 0,0 l/m 0 min 2 min 0 W/m 12,9 km/h (3 Bft) 97,92 %
14.02.2020 05:26 5,7 C 4,4 C 3,9 C 97 % 1012,9 hPa 0,0 l/m 0 min 2 min 0 W/m 0,0 km/h (0 Bft) 95,83 %
14.02.2020 05:28 5,8 C 4,4 C 3,9 C 97 % 1013,0 hPa 0,0 l/m 0 min 2 min 0 W/m 3,2 km/h (1 Bft) 97,92 %
14.02.2020 05:30 5,7 C 4,4 C 3,9 C 97 % 1013,2 hPa 0,0 l/m 0 min 2 min 0 W/m 6,4 km/h (2 Bft) 97,87 %
14.02.2020 05:32 5,7 C 4,4 C 3,9 C 97 % 1013,2 hPa 0,0 l/m 0 min 2 min 0 W/m 3,2 km/h (1 Bft) 97,92 %
14.02.2020 05:34 5,7 C 4,4 C 3,9 C 97 % 1013,2 hPa 0,0 l/m 0 min 2 min 0 W/m 0,0 km/h (0 Bft) 97,87 %
14.02.2020 05:36 5,7 C 4,4 C 3,9 C 97 % 1013,2 hPa 0,0 l/m 0 min 2 min 0 W/m 6,4 km/h (2 Bft) 93,48 %
14.02.2020 05:38 5,7 C 4,4 C 3,9 C 97 % 1013,2 hPa 0,0 l/m 0 min 2 min 0 W/m 0,0 km/h (0 Bft) 95,74 %
14.02.2020 05:40 5,7 C 4,4 C 3,9 C 97 % 1013,3 hPa 0,0 l/m 0 min 2 min 0 W/m 9,7 km/h (2 Bft) 95,74 %
14.02.2020 05:42 5,7 C 4,4 C 3,9 C 97 % 1013,3 hPa 0,0 l/m 0 min 2 min 0 W/m 0,0 km/h (0 Bft) 95,74 %
14.02.2020 05:44 5,7 C 4,4 C 3,9 C 97 % 1013,2 hPa 0,0 l/m 0 min 0 min 0 W/m 6,4 km/h (2 Bft) 95,74 %
14.02.2020 05:46 5,7 C 4,4 C 3,9 C 97 % 1013,3 hPa 0,0 l/m 0 min 2 min 0 W/m 6,4 km/h (2 Bft) 95,74 %
14.02.2020 05:48 5,7 C 4,4 C 3,9 C 97 % 1013,3 hPa 0,0 l/m 0 min 2 min 0 W/m 0,0 km/h (0 Bft) 93,48 %
14.02.2020 05:50 5,7 C 4,4 C 3,9 C 97 % 1013,4 hPa 0,0 l/m 0 min 2 min 0 W/m 6,4 km/h (2 Bft) 91,49 %
14.02.2020 05:52 5,7 C 4,4 C 3,9 C 97 % 1013,4 hPa 0,0 l/m 0 min 2 min 0 W/m 12,9 km/h (3 Bft) 93,62 %
14.02.2020 05:54 5,7 C 4,4 C 3,9 C 97 % 1013,5 hPa 0,0 l/m 0 min 2 min 0 W/m 16,1 km/h (3 Bft) 95,74 %
14.02.2020 05:56 5,6 C 4,4 C 3,9 C 97 % 1013,5 hPa 0,0 l/m 0 min 2 min 0 W/m 6,4 km/h (2 Bft) 91,49 %
14.02.2020 05:58 5,6 C 4,4 C 3,9 C 97 % 1013,6 hPa 0,0 l/m 0 min 2 min 0 W/m 16,1 km/h (3 Bft) 95,24 %
14.02.2020 06:00 5,6 C 4,4 C 3,9 C 97 % 1013,6 hPa 0,0 l/m 0 min 2 min 0 W/m 3,2 km/h (1 Bft) 91,67 %
14.02.2020 06:02 5,6 C 4,4 C 3,9 C 97 % 1013,7 hPa 0,0 l/m 0 min 2 min 0 W/m 9,7 km/h (2 Bft) 92,00 %
14.02.2020 06:04 5,6 C 4,4 C 3,9 C 97 % 1013,8 hPa 0,0 l/m 0 min 2 min 0 W/m 0,0 km/h (0 Bft) 93,48 %
14.02.2020 06:06 5,6 C 4,4 C 3,9 C 97 % 1013,7 hPa 0,0 l/m 0 min 2 min 0 W/m 12,9 km/h (3 Bft) 91,67 %
14.02.2020 06:08 5,6 C 4,4 C 3,9 C 97 % 1013,9 hPa 0,0 l/m 0 min 2 min 0 W/m 0,0 km/h (0 Bft) 93,62 %
14.02.2020 06:10 5,6 C 4,4 C 3,9 C 97 % 1013,9 hPa 0,0 l/m 0 min 2 min 0 W/m 3,2 km/h (1 Bft) 95,74 %
14.02.2020 06:12 5,6 C 4,4 C 3,9 C 97 % 1014,0 hPa 0,0 l/m 0 min 2 min 0 W/m 12,9 km/h (3 Bft) 91,30 %
14.02.2020 06:14 5,6 C 4,4 C 3,9 C 97 % 1014,0 hPa 0,0 l/m 0 min 2 min 0 W/m 3,2 km/h (1 Bft) 95,74 %
14.02.2020 06:16 5,6 C 4,4 C 3,9 C 97 % 1014,0 hPa 0,0 l/m 0 min 2 min 0 W/m 3,2 km/h (1 Bft) 95,74 %
14.02.2020 06:18 5,6 C 4,4 C 3,9 C 97 % 1014,1 hPa 0,0 l/m 0 min 0 min 0 W/m 3,2 km/h (1 Bft) 93,62 %
14.02.2020 06:20 5,6 C 4,4 C 3,9 C 97 % 1014,1 hPa 0,0 l/m 0 min 0 min 0 W/m 3,2 km/h (1 Bft) 97,87 %
14.02.2020 06:22 5,6 C 4,4 C 3,9 C 97 % 1014,2 hPa 0,0 l/m 0 min 0 min 0 W/m 12,9 km/h (3 Bft) 95,74 %
14.02.2020 06:24 5,6 C 4,4 C 3,9 C 97 % 1014,3 hPa 0,0 l/m 0 min 0 min 0 W/m 6,4 km/h (2 Bft) 93,48 %
14.02.2020 06:26 5,6 C 4,4 C 3,9 C 97 % 1014,2 hPa 0,0 l/m 0 min 0 min 0 W/m 9,7 km/h (2 Bft) 97,62 %
14.02.2020 06:28 5,5 C 4,4 C 3,9 C 97 % 1014,4 hPa 0,0 l/m 0 min 0 min 0 W/m 9,7 km/h (2 Bft) 97,92 %
14.02.2020 06:30 5,5 C 4,4 C 3,9 C 97 % 1014,3 hPa 0,0 l/m 0 min 0 min 0 W/m 9,7 km/h (2 Bft) 97,87 %
14.02.2020 06:32 5,5 C 4,4 C 3,9 C 97 % 1014,4 hPa 0,0 l/m 0 min 0 min 0 W/m 12,9 km/h (3 Bft) 95,83 %
14.02.2020 06:34 5,5 C 4,4 C 3,9 C 97 % 1014,5 hPa 0,0 l/m 0 min 0 min 0 W/m 9,7 km/h (2 Bft) 95,83 %
14.02.2020 06:36 5,5 C 4,4 C 3,9 C 97 % 1014,5 hPa 0,0 l/m 0 min 0 min 0 W/m 9,7 km/h (2 Bft) 97,92 %
14.02.2020 06:38 5,4 C 4,4 C 3,9 C 97 % 1014,5 hPa 0,0 l/m 0 min 0 min 0 W/m 22,5 km/h (4 Bft) 97,87 %
14.02.2020 06:40 5,4 C 4,4 C 3,9 C 97 % 1014,5 hPa 0,0 l/m 0 min 0 min 0 W/m 3,2 km/h (1 Bft) 97,87 %
14.02.2020 06:42 5,4 C 4,4 C 3,9 C 97 % 1014,7 hPa 0,0 l/m 0 min 0 min 0 W/m 0,0 km/h (0 Bft) 97,87 %
14.02.2020 06:44 5,4 C 4,4 C 3,9 C 97 % 1014,6 hPa 0,0 l/m 0 min 0 min 0 W/m 6,4 km/h (2 Bft) 97,87 %
14.02.2020 06:46 5,4 C 4,4 C 3,9 C 97 % 1014,7 hPa 0,0 l/m 0 min 0 min 0 W/m 6,4 km/h (2 Bft) 97,83 %
14.02.2020 06:48 5,4 C 4,4 C 3,9 C 97 % 1014,8 hPa 0,0 l/m 0 min 0 min 0 W/m 3,2 km/h (1 Bft) 97,87 %
14.02.2020 06:50 5,4 C 4,4 C 3,9 C 97 % 1014,8 hPa 0,0 l/m 0 min 0 min 0 W/m 9,7 km/h (2 Bft) 97,87 %
14.02.2020 06:52 5,4 C 4,4 C 3,9 C 97 % 1014,8 hPa 0,0 l/m 0 min 0 min 0 W/m 0,0 km/h (0 Bft) 97,62 %
14.02.2020 06:54 5,4 C 4,4 C 3,9 C 97 % 1014,9 hPa 0,0 l/m 0 min 0 min 0 W/m 9,7 km/h (2 Bft) 97,87 %
14.02.2020 06:56 5,3 C 4,4 C 3,9 C 97 % 1014,9 hPa 0,0 l/m 0 min 0 min 0 W/m 0,0 km/h (0 Bft) 97,92 %
14.02.2020 06:58 5,3 C 4,4 C 3,9 C 97 % 1015,0 hPa 0,0 l/m 0 min 0 min 0 W/m 6,4 km/h (2 Bft) 100,00 %
14.02.2020 07:00 5,3 C 4,4 C 3,9 C 97 % 1015,0 hPa 0,0 l/m 0 min 0 min 0 W/m 3,2 km/h (1 Bft) 100,00 %
14.02.2020 07:02 5,3 C 4,4 C 3,9 C 97 % 1015,1 hPa 0,0 l/m 0 min 0 min 0 W/m 6,4 km/h (2 Bft) 100,00 %
14.02.2020 07:04 5,3 C 4,4 C 3,9 C 97 % 1015,1 hPa 0,0 l/m 0 min 0 min 0 W/m 19,3 km/h (3 Bft) 100,00 %
14.02.2020 07:06 5,3 C 4,4 C 3,9 C 97 % 1015,1 hPa 0,0 l/m 0 min 0 min 0 W/m 3,2 km/h (1 Bft) 100,00 %
14.02.2020 07:08 5,3 C 4,4 C 3,9 C 97 % 1015,2 hPa 0,0 l/m 0 min 0 min 0 W/m 0,0 km/h (0 Bft) 100,00 %
14.02.2020 07:10 5,3 C 4,4 C 3,9 C 97 % 1015,2 hPa 0,0 l/m 0 min 0 min 0 W/m 0,0 km/h (0 Bft) 100,00 %
14.02.2020 07:12 5,3 C 4,4 C 3,9 C 97 % 1015,3 hPa 0,0 l/m 0 min 0 min 0 W/m 3,2 km/h (1 Bft) 100,00 %
14.02.2020 07:14 5,3 C 4,4 C 3,9 C 97 % 1015,3 hPa 0,0 l/m 0 min 0 min 0 W/m 6,4 km/h (2 Bft) 100,00 %
14.02.2020 07:16 5,3 C 4,4 C 3,9 C 97 % 1015,5 hPa 0,0 l/m 0 min 0 min 0 W/m 9,7 km/h (2 Bft) 100,00 %
14.02.2020 07:18 5,3 C 4,4 C 3,9 C 97 % 1015,6 hPa 0,0 l/m 0 min 0 min 0 W/m 12,9 km/h (3 Bft) 100,00 %
14.02.2020 07:20 5,3 C 4,4 C 3,9 C 97 % 1015,6 hPa 0,0 l/m 0 min 0 min 0 W/m 6,4 km/h (2 Bft) 100,00 %
14.02.2020 07:22 5,2 C 4,4 C 3,9 C 97 % 1015,7 hPa 0,0 l/m 0 min 0 min 0 W/m 0,0 km/h (0 Bft) 100,00 %
14.02.2020 07:24 5,2 C 4,4 C 3,9 C 97 % 1015,7 hPa 0,0 l/m 0 min 0 min 0 W/m 0,0 km/h (0 Bft) 100,00 %
14.02.2020 07:26 5,2 C 4,4 C 3,9 C 97 % 1015,8 hPa 0,0 l/m 0 min 0 min 0 W/m 12,9 km/h (3 Bft) 97,87 %
14.02.2020 07:28 5,2 C 4,4 C 3,9 C 97 % 1015,8 hPa 0,0 l/m 0 min 0 min 0 W/m 0,0 km/h (0 Bft) 100,00 %
14.02.2020 07:30 5,2 C 4,4 C 3,9 C 97 % 1015,9 hPa 0,0 l/m 0 min 0 min 0 W/m 0,0 km/h (0 Bft) 100,00 %
14.02.2020 07:32 5,2 C 4,4 C 3,9 C 97 % 1016,0 hPa 0,0 l/m 0 min 0 min 0 W/m 9,7 km/h (2 Bft) 100,00 %
14.02.2020 07:34 5,2 C 4,4 C 3,9 C 97 % 1016,1 hPa 0,0 l/m 0 min 0 min 0 W/m 6,4 km/h (2 Bft) 97,87 %
14.02.2020 07:36 5,2 C 4,4 C 3,9 C 97 % 1016,2 hPa 0,0 l/m 0 min 0 min 0 W/m 6,4 km/h (2 Bft) 100,00 %
14.02.2020 07:38 5,2 C 4,4 C 3,9 C 97 % 1016,2 hPa 0,0 l/m 0 min 0 min 0 W/m 0,0 km/h (0 Bft) 100,00 %
14.02.2020 07:40 5,2 C 4,4 C 3,9 C 97 % 1016,2 hPa 0,0 l/m 0 min 0 min 0 W/m 0,0 km/h (0 Bft) 100,00 %
14.02.2020 07:42 5,2 C 4,4 C 3,9 C 97 % 1016,3 hPa 0,0 l/m 0 min 0 min 0 W/m 0,0 km/h (0 Bft) 100,00 %
14.02.2020 07:44 5,2 C 4,4 C 3,9 C 97 % 1016,5 hPa 0,0 l/m 0 min 0 min 0 W/m 0,0 km/h (0 Bft) 97,92 %
14.02.2020 07:46 5,2 C 4,4 C 3,9 C 97 % 1016,4 hPa 0,0 l/m 0 min 0 min 0 W/m 0,0 km/h (0 Bft) 100,00 %
14.02.2020 07:48 5,2 C 4,4 C 3,9 C 97 % 1016,5 hPa 0,0 l/m 0 min 0 min 0 W/m 3,2 km/h (1 Bft) 100,00 %
14.02.2020 07:50 5,2 C 4,4 C 3,9 C 97 % 1016,5 hPa 0,0 l/m 0 min 0 min 0 W/m 3,2 km/h (1 Bft) 100,00 %
14.02.2020 07:52 5,2 C 4,4 C 3,9 C 97 % 1016,5 hPa 0,0 l/m 0 min 0 min 0 W/m 3,2 km/h (1 Bft) 100,00 %
14.02.2020 07:54 5,2 C 4,4 C 3,9 C 97 % 1016,5 hPa 0,0 l/m 0 min 0 min 0 W/m 16,1 km/h (3 Bft) 97,92 %
14.02.2020 07:56 5,3 C 4,4 C 3,9 C 97 % 1016,5 hPa 0,0 l/m 0 min 0 min 0 W/m 0,0 km/h (0 Bft) 97,87 %
14.02.2020 07:58 5,3 C 4,4 C 3,9 C 97 % 1016,6 hPa 0,0 l/m 0 min 0 min 0 W/m 9,7 km/h (2 Bft) 100,00 %
14.02.2020 08:00 5,3 C 4,4 C 3,9 C 97 % 1016,6 hPa 0,0 l/m 0 min 0 min 0 W/m 0,0 km/h (0 Bft) 97,87 %
14.02.2020 08:02 5,3 C 4,4 C 3,9 C 97 % 1016,6 hPa 0,0 l/m 0 min 0 min 0 W/m 0,0 km/h (0 Bft) 97,83 %
14.02.2020 08:04 5,3 C 4,4 C 3,9 C 97 % 1016,5 hPa 0,0 l/m 0 min 0 min 0 W/m 3,2 km/h (1 Bft) 97,87 %
14.02.2020 08:06 5,3 C 4,4 C 3,9 C 97 % 1016,6 hPa 0,0 l/m 0 min 0 min 0 W/m 3,2 km/h (1 Bft) 97,87 %
14.02.2020 08:08 5,3 C 4,4 C 3,9 C 97 % 1016,6 hPa 0,0 l/m 0 min 0 min 0 W/m 3,2 km/h (1 Bft) 97,87 %
14.02.2020 08:10 5,3 C 4,4 C 3,9 C 97 % 1016,7 hPa 0,0 l/m 0 min 0 min 4 W/m 6,4 km/h (2 Bft) 97,87 %
14.02.2020 08:12 5,3 C 4,4 C 3,9 C 97 % 1016,7 hPa 0,0 l/m 0 min 0 min 6 W/m 3,2 km/h (1 Bft) 97,87 %
14.02.2020 08:14 5,3 C 4,4 C 3,9 C 97 % 1016,8 hPa 0,0 l/m 0 min 0 min 7 W/m 0,0 km/h (0 Bft) 95,74 %
14.02.2020 08:16 5,3 C 4,4 C 3,9 C 97 % 1016,9 hPa 0,0 l/m 0 min 0 min 11 W/m 6,4 km/h (2 Bft) 97,87 %
14.02.2020 08:18 5,3 C 4,4 C 3,9 C 97 % 1017,0 hPa 0,0 l/m 0 min 0 min 13 W/m 12,9 km/h (3 Bft) 97,87 %
14.02.2020 08:20 5,3 C 4,4 C 3,9 C 97 % 1017,0 hPa 0,0 l/m 0 min 0 min 17 W/m 22,5 km/h (4 Bft) 97,87 %
14.02.2020 08:22 5,3 C 4,4 C 3,9 C 97 % 1017,1 hPa 0,0 l/m 0 min 0 min 18 W/m 6,4 km/h (2 Bft) 97,87 %
14.02.2020 08:24 5,3 C 4,4 C 3,9 C 97 % 1017,2 hPa 0,0 l/m 0 min 0 min 17 W/m 0,0 km/h (0 Bft) 97,87 %
14.02.2020 08:26 5,3 C 4,4 C 3,9 C 97 % 1017,1 hPa 0,0 l/m 0 min 0 min 15 W/m 6,4 km/h (2 Bft) 93,62 %
14.02.2020 08:28 5,3 C 4,4 C 3,9 C 97 % 1017,2 hPa 0,0 l/m 0 min 0 min 19 W/m 0,0 km/h (0 Bft) 95,74 %
14.02.2020 08:30 5,3 C 4,4 C 3,9 C 97 % 1017,2 hPa 0,0 l/m 0 min 0 min 22 W/m 0,0 km/h (0 Bft) 95,74 %
14.02.2020 08:32 5,3 C 4,4 C 3,9 C 97 % 1017,2 hPa 0,0 l/m 0 min 0 min 22 W/m 0,0 km/h (0 Bft) 93,62 %
14.02.2020 08:34 5,3 C 4,4 C 3,9 C 97 % 1017,3 hPa 0,0 l/m 0 min 0 min 27 W/m 9,7 km/h (2 Bft) 93,62 %
14.02.2020 08:36 5,3 C 4,4 C 3,9 C 97 % 1017,3 hPa 0,0 l/m 0 min 0 min 29 W/m 9,7 km/h (2 Bft) 95,74 %
14.02.2020 08:38 5,4 C 4,4 C 3,9 C 97 % 1017,4 hPa 0,0 l/m 0 min 0 min 30 W/m 0,0 km/h (0 Bft) 54,35 %
14.02.2020 08:40 5,4 C 4,4 C 3,9 C 97 % 1017,4 hPa 0,0 l/m 0 min 0 min 27 W/m 3,2 km/h (1 Bft) 95,74 %
14.02.2020 08:42 5,4 C 4,4 C 3,9 C 97 % 1017,4 hPa 0,0 l/m 0 min 0 min 27 W/m 9,7 km/h (2 Bft) 97,87 %
14.02.2020 08:44 5,4 C 4,4 C 3,9 C 97 % 1017,5 hPa 0,0 l/m 0 min 0 min 26 W/m 0,0 km/h (0 Bft) 95,74 %
14.02.2020 08:46 5,4 C 4,4 C 4,4 C 97 % 1017,6 hPa 0,0 l/m 0 min 0 min 30 W/m 22,5 km/h (4 Bft) 95,74 %
14.02.2020 08:48 5,5 C 4,4 C 3,9 C 97 % 1017,6 hPa 0,0 l/m 0 min 0 min 23 W/m 12,9 km/h (3 Bft) 97,87 %
14.02.2020 08:50 5,5 C 4,4 C 3,9 C 96 % 1017,7 hPa 0,0 l/m 0 min 0 min 20 W/m 9,7 km/h (2 Bft) 97,87 %
14.02.2020 08:52 5,5 C 4,4 C 3,9 C 96 % 1017,7 hPa 0,0 l/m 0 min 0 min 21 W/m 19,3 km/h (3 Bft) 97,87 %
14.02.2020 08:54 5,5 C 4,4 C 3,9 C 96 % 1017,8 hPa 0,0 l/m 0 min 0 min 27 W/m 0,0 km/h (0 Bft) 97,83 %
14.02.2020 08:56 5,5 C 4,4 C 3,9 C 96 % 1017,8 hPa 0,0 l/m 0 min 0 min 37 W/m 6,4 km/h (2 Bft) 97,87 %
14.02.2020 08:58 5,5 C 4,4 C 3,9 C 96 % 1017,9 hPa 0,0 l/m 0 min 0 min 35 W/m 0,0 km/h (0 Bft) 97,87 %
14.02.2020 09:00 5,6 C 4,4 C 3,9 C 96 % 1017,9 hPa 0,0 l/m 0 min 0 min 35 W/m 0,0 km/h (0 Bft) 95,74 %
14.02.2020 09:02 5,5 C 4,4 C 3,9 C 96 % 1017,9 hPa 0,0 l/m 0 min 0 min 37 W/m 6,4 km/h (2 Bft) 97,87 %
14.02.2020 09:04 5,6 C 4,4 C 3,9 C 96 % 1017,9 hPa 0,0 l/m 0 min 0 min 38 W/m 12,9 km/h (3 Bft) 97,87 %
14.02.2020 09:06 5,6 C 4,4 C 3,9 C 96 % 1018,0 hPa 0,0 l/m 0 min 0 min 46 W/m 3,2 km/h (1 Bft) 97,83 %
14.02.2020 09:08 5,6 C 4,4 C 3,9 C 96 % 1018,1 hPa 0,0 l/m 0 min 0 min 45 W/m 16,1 km/h (3 Bft) 97,87 %
14.02.2020 09:10 5,6 C 4,4 C 4,4 C 96 % 1018,2 hPa 0,0 l/m 0 min 0 min 39 W/m 0,0 km/h (0 Bft) 100,00 %
14.02.2020 09:12 5,6 C 4,4 C 4,4 C 96 % 1018,3 hPa 0,0 l/m 0 min 0 min 37 W/m 9,7 km/h (2 Bft) 100,00 %
14.02.2020 09:14 5,6 C 4,4 C 4,4 C 96 % 1018,4 hPa 0,0 l/m 0 min 0 min 37 W/m 12,9 km/h (3 Bft) 100,00 %
14.02.2020 09:16 5,6 C 4,4 C 4,4 C 96 % 1018,4 hPa 0,0 l/m 0 min 0 min 37 W/m 6,4 km/h (2 Bft) 100,00 %
14.02.2020 09:18 5,6 C 4,4 C 4,4 C 96 % 1018,5 hPa 0,0 l/m 0 min 0 min 39 W/m 0,0 km/h (0 Bft) 100,00 %
14.02.2020 09:20 5,6 C 4,4 C 4,4 C 96 % 1018,5 hPa 0,0 l/m 0 min 0 min 41 W/m 16,1 km/h (3 Bft) 100,00 %
14.02.2020 09:22 5,6 C 4,4 C 4,4 C 96 % 1018,6 hPa 0,0 l/m 0 min 0 min 39 W/m 6,4 km/h (2 Bft) 100,00 %
14.02.2020 09:24 5,6 C 4,4 C 4,4 C 95 % 1018,6 hPa 0,0 l/m 0 min 0 min 31 W/m 9,7 km/h (2 Bft) 100,00 %
14.02.2020 09:26 5,6 C 4,4 C 4,4 C 95 % 1018,6 hPa 0,0 l/m 0 min 0 min 31 W/m 16,1 km/h (3 Bft) 100,00 %
14.02.2020 09:28 5,6 C 4,4 C 4,4 C 95 % 1018,6 hPa 0,0 l/m 0 min 0 min 31 W/m 19,3 km/h (3 Bft) 100,00 %
14.02.2020 09:30 5,6 C 5,0 C 4,4 C 95 % 1018,6 hPa 0,0 l/m 0 min 0 min 31 W/m 6,4 km/h (2 Bft) 100,00 %
14.02.2020 09:32 5,7 C 5,0 C 4,4 C 95 % 1018,7 hPa 0,0 l/m 0 min 0 min 34 W/m 12,9 km/h (3 Bft) 100,00 %
14.02.2020 09:34 5,7 C 5,0 C 4,4 C 95 % 1018,7 hPa 0,0 l/m 0 min 0 min 36 W/m 16,1 km/h (3 Bft) 100,00 %
14.02.2020 09:36 5,7 C 5,0 C 4,4 C 95 % 1018,8 hPa 0,0 l/m 0 min 0 min 34 W/m 12,9 km/h (3 Bft) 93,62 %
14.02.2020 09:38 5,7 C 5,0 C 4,4 C 95 % 1018,8 hPa 0,0 l/m 0 min 0 min 37 W/m 9,7 km/h (2 Bft) 97,87 %
14.02.2020 09:40 5,7 C 5,0 C 4,4 C 95 % 1018,8 hPa 0,0 l/m 0 min 0 min 40 W/m 9,7 km/h (2 Bft) 95,65 %
14.02.2020 09:42 5,7 C 5,0 C 4,4 C 95 % 1018,9 hPa 0,0 l/m 0 min 0 min 37 W/m 16,1 km/h (3 Bft) 97,87 %
14.02.2020 09:44 5,7 C 5,0 C 4,4 C 95 % 1019,0 hPa 0,0 l/m 0 min 0 min 37 W/m 6,4 km/h (2 Bft) 97,87 %
14.02.2020 09:46 5,7 C 4,4 C 4,4 C 94 % 1019,1 hPa 0,0 l/m 0 min 0 min 36 W/m 16,1 km/h (3 Bft) 97,87 %
14.02.2020 09:48 5,7 C 5,0 C 4,4 C 94 % 1019,1 hPa 0,0 l/m 0 min 0 min 42 W/m 9,7 km/h (2 Bft) 97,87 %
14.02.2020 09:50 5,7 C 5,0 C 4,4 C 94 % 1019,0 hPa 0,0 l/m 0 min 0 min 47 W/m 16,1 km/h (3 Bft) 97,87 %
14.02.2020 09:52 5,8 C 5,0 C 4,4 C 94 % 1019,0 hPa 0,0 l/m 0 min 0 min 42 W/m 12,9 km/h (3 Bft) 97,83 %
14.02.2020 09:54 5,8 C 5,0 C 4,4 C 94 % 1019,1 hPa 0,0 l/m 0 min 0 min 46 W/m 6,4 km/h (2 Bft) 97,87 %
14.02.2020 09:56 5,8 C 5,0 C 4,4 C 94 % 1019,1 hPa 0,0 l/m 0 min 0 min 53 W/m 6,4 km/h (2 Bft) 97,87 %
14.02.2020 09:58 5,8 C 5,0 C 4,4 C 94 % 1019,2 hPa 0,0 l/m 0 min 0 min 53 W/m 12,9 km/h (3 Bft) 97,87 %
14.02.2020 10:00 5,8 C 5,0 C 4,4 C 94 % 1019,3 hPa 0,0 l/m 0 min 0 min 47 W/m 9,7 km/h (2 Bft) 95,74 %
14.02.2020 10:02 5,8 C 5,0 C 4,4 C 94 % 1019,4 hPa 0,0 l/m 0 min 0 min 46 W/m 9,7 km/h (2 Bft) 97,87 %
14.02.2020 10:04 5,8 C 5,0 C 4,4 C 94 % 1019,3 hPa 0,0 l/m 0 min 0 min 54 W/m 6,4 km/h (2 Bft) 97,83 %
14.02.2020 10:06 5,8 C 5,0 C 4,4 C 94 % 1019,4 hPa 0,0 l/m 0 min 0 min 55 W/m 6,4 km/h (2 Bft) 97,87 %
14.02.2020 10:08 5,8 C 5,0 C 4,4 C 94 % 1019,4 hPa 0,0 l/m 0 min 0 min 48 W/m 12,9 km/h (3 Bft) 97,87 %
14.02.2020 10:10 5,8 C 5,0 C 4,4 C 94 % 1019,5 hPa 0,0 l/m 0 min 0 min 47 W/m 0,0 km/h (0 Bft) 97,87 %
14.02.2020 10:12 5,9 C 5,0 C 4,4 C 94 % 1019,5 hPa 0,0 l/m 0 min 0 min 51 W/m 9,7 km/h (2 Bft) 97,87 %
14.02.2020 10:14 5,9 C 5,0 C 4,4 C 94 % 1019,6 hPa 0,0 l/m 0 min 0 min 49 W/m 9,7 km/h (2 Bft) 97,56 %
14.02.2020 10:16 5,9 C 5,0 C 4,4 C 94 % 1019,7 hPa 0,0 l/m 0 min 0 min 44 W/m 19,3 km/h (3 Bft) 97,87 %
14.02.2020 10:18 5,9 C 5,0 C 4,4 C 94 % 1019,7 hPa 0,0 l/m 0 min 0 min 42 W/m 19,3 km/h (3 Bft) 97,87 %
14.02.2020 10:20 5,9 C 5,0 C 4,4 C 94 % 1019,7 hPa 0,0 l/m 0 min 0 min 49 W/m 9,7 km/h (2 Bft) 95,74 %
14.02.2020 10:22 5,9 C 5,0 C 4,4 C 94 % 1019,7 hPa 0,0 l/m 0 min 0 min 53 W/m 0,0 km/h (0 Bft) 95,65 %
14.02.2020 10:24 6,0 C 5,0 C 4,4 C 94 % 1019,8 hPa 0,0 l/m 0 min 0 min 53 W/m 3,2 km/h (1 Bft) 97,92 %
14.02.2020 10:26 6,0 C 5,0 C 4,4 C 94 % 1019,8 hPa 0,0 l/m 0 min 0 min 50 W/m 12,9 km/h (3 Bft) 97,87 %
14.02.2020 10:28 6,0 C 5,0 C 5,0 C 93 % 1019,8 hPa 0,0 l/m 0 min 0 min 50 W/m 9,7 km/h (2 Bft) 97,87 %
14.02.2020 10:30 6,1 C 5,0 C 5,0 C 93 % 1019,8 hPa 0,0 l/m 0 min 0 min 55 W/m 6,4 km/h (2 Bft) 95,74 %
14.02.2020 10:32 6,1 C 5,6 C 5,0 C 93 % 1019,9 hPa 0,0 l/m 0 min 0 min 50 W/m 9,7 km/h (2 Bft) 95,65 %
14.02.2020 10:34 6,1 C 5,6 C 5,0 C 93 % 1019,9 hPa 0,0 l/m 0 min 0 min 49 W/m 12,9 km/h (3 Bft) 95,74 %
14.02.2020 10:36 6,1 C 5,6 C 5,0 C 93 % 1019,9 hPa 0,0 l/m 0 min 0 min 54 W/m 19,3 km/h (3 Bft) 97,92 %
14.02.2020 10:38 6,1 C 5,6 C 5,0 C 93 % 1020,0 hPa 0,0 l/m 0 min 0 min 61 W/m 9,7 km/h (2 Bft) 97,87 %
14.02.2020 10:40 6,2 C 5,6 C 5,0 C 93 % 1020,0 hPa 0,0 l/m 0 min 0 min 60 W/m 12,9 km/h (3 Bft) 97,87 %
14.02.2020 10:42 6,2 C 5,6 C 5,0 C 93 % 1020,1 hPa 0,0 l/m 0 min 0 min 54 W/m 16,1 km/h (3 Bft) 95,74 %
14.02.2020 10:44 6,2 C 5,6 C 5,0 C 92 % 1020,1 hPa 0,0 l/m 0 min 0 min 55 W/m 12,9 km/h (3 Bft) 95,74 %
14.02.2020 10:46 6,3 C 5,6 C 5,0 C 92 % 1020,2 hPa 0,0 l/m 0 min 0 min 56 W/m 9,7 km/h (2 Bft) 95,74 %
14.02.2020 10:48 6,3 C 5,6 C 5,0 C 92 % 1020,2 hPa 0,0 l/m 0 min 0 min 57 W/m 9,7 km/h (2 Bft) 95,74 %
14.02.2020 10:50 6,3 C 5,6 C 5,0 C 92 % 1020,3 hPa 0,0 l/m 0 min 0 min 61 W/m 6,4 km/h (2 Bft) 97,87 %
14.02.2020 10:52 6,3 C 5,6 C 5,0 C 92 % 1020,3 hPa 0,0 l/m 0 min 0 min 62 W/m 12,9 km/h (3 Bft) 97,87 %
14.02.2020 10:54 6,3 C 6,1 C 5,0 C 92 % 1020,3 hPa 0,0 l/m 0 min 0 min 58 W/m 3,2 km/h (1 Bft) 97,92 %
14.02.2020 10:56 6,3 C 6,1 C 5,0 C 92 % 1020,3 hPa 0,0 l/m 0 min 0 min 57 W/m 6,4 km/h (2 Bft) 97,83 %
14.02.2020 10:58 6,4 C 6,1 C 5,0 C 92 % 1020,4 hPa 0,0 l/m 0 min 0 min 64 W/m 6,4 km/h (2 Bft) 95,74 %
14.02.2020 11:00 6,4 C 6,1 C 5,0 C 92 % 1020,4 hPa 0,0 l/m 0 min 0 min 69 W/m 16,1 km/h (3 Bft) 97,92 %
14.02.2020 11:02 6,4 C 6,1 C 5,0 C 92 % 1020,4 hPa 0,0 l/m 0 min 0 min 73 W/m 12,9 km/h (3 Bft) 93,62 %
14.02.2020 11:04 6,4 C 6,1 C 5,6 C 92 % 1020,5 hPa 0,0 l/m 0 min 0 min 76 W/m 9,7 km/h (2 Bft) 93,62 %
14.02.2020 11:06 6,5 C 6,1 C 5,6 C 91 % 1020,6 hPa 0,0 l/m 0 min 0 min 76 W/m 9,7 km/h (2 Bft) 95,74 %
14.02.2020 11:08 6,5 C 6,1 C 5,6 C 91 % 1020,6 hPa 0,0 l/m 0 min 0 min 72 W/m 3,2 km/h (1 Bft) 95,74 %
14.02.2020 11:10 6,5 C 6,7 C 5,6 C 91 % 1020,5 hPa 0,0 l/m 0 min 0 min 70 W/m 6,4 km/h (2 Bft) 65,96 %
14.02.2020 11:12 6,5 C 6,7 C 5,6 C 91 % 1020,6 hPa 0,0 l/m 0 min 0 min 70 W/m 6,4 km/h (2 Bft) 82,98 %
14.02.2020 11:14 6,5 C 6,7 C 5,6 C 91 % 1020,6 hPa 0,0 l/m 0 min 0 min 74 W/m 6,4 km/h (2 Bft) 95,65 %
14.02.2020 11:16 6,6 C 6,7 C 5,6 C 91 % 1020,6 hPa 0,0 l/m 0 min 0 min 67 W/m 6,4 km/h (2 Bft) 91,49 %
14.02.2020 11:18 6,6 C 6,7 C 5,6 C 91 % 1020,6 hPa 0,0 l/m 0 min 0 min 68 W/m 6,4 km/h (2 Bft) 95,74 %
14.02.2020 11:20 6,6 C 6,7 C 5,6 C 91 % 1020,7 hPa 0,0 l/m 0 min 0 min 76 W/m 6,4 km/h (2 Bft) 93,62 %
14.02.2020 11:22 6,6 C 6,7 C 5,6 C 91 % 1020,7 hPa 0,0 l/m 0 min 0 min 85 W/m 12,9 km/h (3 Bft) 95,74 %
14.02.2020 11:24 6,6 C 6,7 C 5,6 C 91 % 1020,7 hPa 0,0 l/m 0 min 0 min 88 W/m 6,4 km/h (2 Bft) 97,83 %
14.02.2020 11:26 6,6 C 6,7 C 5,6 C 91 % 1020,7 hPa 0,0 l/m 0 min 0 min 83 W/m 9,7 km/h (2 Bft) 97,87 %
14.02.2020 11:28 6,7 C 6,7 C 5,6 C 91 % 1020,7 hPa 0,0 l/m 0 min 0 min 89 W/m 16,1 km/h (3 Bft) 97,87 %
14.02.2020 11:30 6,7 C 6,7 C 5,6 C 91 % 1020,7 hPa 0,0 l/m 0 min 0 min 93 W/m 12,9 km/h (3 Bft) 97,87 %
14.02.2020 11:32 6,7 C 6,7 C 5,6 C 90 % 1020,8 hPa 0,0 l/m 0 min 0 min 91 W/m 9,7 km/h (2 Bft) 97,87 %
14.02.2020 11:34 6,7 C 6,7 C 5,6 C 90 % 1020,8 hPa 0,0 l/m 0 min 0 min 94 W/m 6,4 km/h (2 Bft) 97,87 %
14.02.2020 11:36 6,7 C 6,7 C 5,6 C 90 % 1020,9 hPa 0,0 l/m 0 min 0 min 93 W/m 9,7 km/h (2 Bft) 95,65 %
14.02.2020 11:38 6,7 C 6,7 C 5,6 C 90 % 1020,9 hPa 0,0 l/m 0 min 0 min 98 W/m 6,4 km/h (2 Bft) 97,87 %
14.02.2020 11:40 6,8 C 6,7 C 5,6 C 90 % 1020,9 hPa 0,0 l/m 0 min 0 min 103 W/m 12,9 km/h (3 Bft) 97,87 %
14.02.2020 11:42 6,8 C 6,7 C 5,6 C 90 % 1021,0 hPa 0,0 l/m 0 min 0 min 105 W/m 22,5 km/h (4 Bft) 97,87 %
14.02.2020 11:44 6,8 C 7,2 C 6,1 C 90 % 1021,0 hPa 0,0 l/m 0 min 0 min 113 W/m 12,9 km/h (3 Bft) 97,56 %
14.02.2020 11:46 6,8 C 7,2 C 6,1 C 90 % 1021,1 hPa 0,0 l/m 0 min 0 min 117 W/m 16,1 km/h (3 Bft) 97,92 %
14.02.2020 11:48 6,9 C 7,2 C 6,1 C 90 % 1021,1 hPa 0,0 l/m 0 min 0 min 114 W/m 6,4 km/h (2 Bft) 100,00 %
14.02.2020 11:50 6,9 C 7,2 C 6,1 C 90 % 1021,2 hPa 0,0 l/m 0 min 0 min 108 W/m 12,9 km/h (3 Bft) 100,00 %
14.02.2020 11:52 6,9 C 7,2 C 6,1 C 89 % 1021,2 hPa 0,0 l/m 0 min 0 min 108 W/m 16,1 km/h (3 Bft) 100,00 %
14.02.2020 11:54 6,9 C 7,2 C 6,7 C 89 % 1021,2 hPa 0,0 l/m 0 min 0 min 114 W/m 16,1 km/h (3 Bft) 97,87 %
14.02.2020 11:56 7,0 C 7,2 C 6,7 C 89 % 1021,2 hPa 0,0 l/m 0 min 0 min 103 W/m 22,5 km/h (4 Bft) 97,87 %
14.02.2020 11:58 7,0 C 7,2 C 6,7 C 89 % 1021,2 hPa 0,0 l/m 0 min 0 min 114 W/m 16,1 km/h (3 Bft) 100,00 %
14.02.2020 12:00 7,1 C 7,2 C 6,7 C 89 % 1021,3 hPa 0,0 l/m 0 min 0 min 134 W/m 6,4 km/h (2 Bft) 100,00 %
14.02.2020 12:02 7,1 C 7,2 C 7,2 C 89 % 1021,3 hPa 0,0 l/m 0 min 0 min 130 W/m 12,9 km/h (3 Bft) 100,00 %
14.02.2020 12:04 7,1 C 7,2 C 7,2 C 89 % 1021,3 hPa 0,0 l/m 0 min 0 min 128 W/m 12,9 km/h (3 Bft) 100,00 %
14.02.2020 12:06 7,2 C 7,2 C 7,2 C 89 % 1021,4 hPa 0,0 l/m 0 min 0 min 134 W/m 9,7 km/h (2 Bft) 100,00 %
14.02.2020 12:08 7,2 C 7,2 C 7,2 C 88 % 1021,4 hPa 0,0 l/m 0 min 0 min 131 W/m 12,9 km/h (3 Bft) 100,00 %
14.02.2020 12:10 7,2 C 7,8 C 7,2 C 88 % 1021,4 hPa 0,0 l/m 0 min 0 min 135 W/m 9,7 km/h (2 Bft) 100,00 %
14.02.2020 12:12 7,2 C 7,8 C 7,2 C 88 % 1021,5 hPa 0,0 l/m 0 min 0 min 138 W/m 16,1 km/h (3 Bft) 100,00 %
14.02.2020 12:14 7,3 C 7,8 C 7,2 C 88 % 1021,5 hPa 0,0 l/m 0 min 0 min 144 W/m 9,7 km/h (2 Bft) 100,00 %
14.02.2020 12:16 7,3 C 7,8 C 7,2 C 88 % 1021,5 hPa 0,0 l/m 0 min 0 min 141 W/m 19,3 km/h (3 Bft) 100,00 %
14.02.2020 12:18 7,3 C 7,8 C 7,2 C 87 % 1021,5 hPa 0,0 l/m 0 min 0 min 141 W/m 12,9 km/h (3 Bft) 100,00 %
14.02.2020 12:20 7,3 C 7,8 C 7,2 C 87 % 1021,5 hPa 0,0 l/m 0 min 0 min 153 W/m 9,7 km/h (2 Bft) 100,00 %
14.02.2020 12:22 7,4 C 7,8 C 7,2 C 86 % 1021,5 hPa 0,0 l/m 0 min 0 min 139 W/m 12,9 km/h (3 Bft) 100,00 %
14.02.2020 12:24 7,4 C 7,8 C 7,2 C 86 % 1021,5 hPa 0,0 l/m 0 min 0 min 117 W/m 16,1 km/h (3 Bft) 100,00 %
14.02.2020 12:26 7,4 C 7,8 C 7,2 C 86 % 1021,6 hPa 0,0 l/m 0 min 0 min 100 W/m 12,9 km/h (3 Bft) 97,92 %
14.02.2020 12:28 7,4 C 7,8 C 7,2 C 86 % 1021,6 hPa 0,0 l/m 0 min 0 min 96 W/m 9,7 km/h (2 Bft) 100,00 %
14.02.2020 12:30 7,4 C 7,2 C 6,7 C 86 % 1021,6 hPa 0,0 l/m 0 min 0 min 98 W/m 9,7 km/h (2 Bft) 100,00 %
14.02.2020 12:32 7,5 C 7,2 C 6,7 C 86 % 1021,5 hPa 0,0 l/m 0 min 0 min 104 W/m 12,9 km/h (3 Bft) 97,87 %
14.02.2020 12:34 7,5 C 7,8 C 6,7 C 86 % 1021,5 hPa 0,0 l/m 0 min 0 min 110 W/m 12,9 km/h (3 Bft) 100,00 %
14.02.2020 12:36 7,6 C 7,8 C 7,2 C 86 % 1021,5 hPa 0,0 l/m 0 min 0 min 128 W/m 0,0 km/h (0 Bft) 100,00 %
14.02.2020 12:38 7,6 C 7,8 C 7,2 C 86 % 1021,4 hPa 0,0 l/m 0 min 0 min 146 W/m 16,1 km/h (3 Bft) 97,92 %
14.02.2020 12:40 7,6 C 7,8 C 7,2 C 86 % 1021,5 hPa 0,0 l/m 0 min 0 min 134 W/m 6,4 km/h (2 Bft) 100,00 %
14.02.2020 12:42 7,6 C 7,8 C 7,2 C 86 % 1021,4 hPa 0,0 l/m 0 min 0 min 122 W/m 9,7 km/h (2 Bft) 95,74 %
14.02.2020 12:44 7,6 C 7,8 C 7,2 C 86 % 1021,4 hPa 0,0 l/m 0 min 0 min 112 W/m 12,9 km/h (3 Bft) 93,62 %
14.02.2020 12:46 7,6 C 7,8 C 7,2 C 86 % 1021,5 hPa 0,0 l/m 0 min 0 min 102 W/m 16,1 km/h (3 Bft) 97,83 %
14.02.2020 12:48 7,6 C 7,8 C 7,2 C 86 % 1021,5 hPa 0,0 l/m 0 min 0 min 88 W/m 9,7 km/h (2 Bft) 97,87 %
14.02.2020 12:50 7,7 C 7,8 C 6,7 C 86 % 1021,6 hPa 0,0 l/m 0 min 0 min 83 W/m 6,4 km/h (2 Bft) 97,87 %
14.02.2020 12:52 7,6 C 7,2 C 6,7 C 86 % 1021,5 hPa 0,0 l/m 0 min 0 min 87 W/m 9,7 km/h (2 Bft) 97,87 %
14.02.2020 12:54 7,6 C 7,2 C 6,7 C 86 % 1021,5 hPa 0,0 l/m 0 min 0 min 88 W/m 6,4 km/h (2 Bft) 95,74 %
14.02.2020 12:56 7,7 C 7,2 C 6,7 C 86 % 1021,5 hPa 0,0 l/m 0 min 0 min 81 W/m 9,7 km/h (2 Bft) 95,74 %
14.02.2020 12:58 7,6 C 7,2 C 6,7 C 86 % 1021,7 hPa 0,0 l/m 0 min 0 min 74 W/m 12,9 km/h (3 Bft) 97,83 %
14.02.2020 13:00 7,6 C 7,2 C 6,7 C 86 % 1021,7 hPa 0,0 l/m 0 min 0 min 77 W/m 12,9 km/h (3 Bft) 95,74 %
14.02.2020 13:02 7,6 C 7,2 C 6,7 C 86 % 1021,7 hPa 0,0 l/m 0 min 0 min 84 W/m 6,4 km/h (2 Bft) 97,87 %
14.02.2020 13:04 7,6 C 7,2 C 6,7 C 86 % 1021,7 hPa 0,0 l/m 0 min 0 min 84 W/m 6,4 km/h (2 Bft) 95,74 %
14.02.2020 13:06 7,6 C 7,2 C 6,7 C 86 % 1021,8 hPa 0,0 l/m 0 min 0 min 79 W/m 0,0 km/h (0 Bft) 97,87 %
14.02.2020 13:08 7,6 C 7,2 C 6,7 C 86 % 1021,8 hPa 0,0 l/m 0 min 0 min 75 W/m 22,5 km/h (4 Bft) 97,87 %
14.02.2020 13:10 7,6 C 7,2 C 6,7 C 86 % 1021,8 hPa 0,0 l/m 0 min 0 min 72 W/m 6,4 km/h (2 Bft) 97,83 %
14.02.2020 13:12 7,6 C 7,2 C 6,7 C 86 % 1021,8 hPa 0,0 l/m 0 min 0 min 73 W/m 12,9 km/h (3 Bft) 97,87 %
14.02.2020 13:14 7,6 C 7,2 C 6,7 C 86 % 1021,7 hPa 0,0 l/m 0 min 0 min 77 W/m 6,4 km/h (2 Bft) 97,87 %
14.02.2020 13:16 7,6 C 7,2 C 6,7 C 86 % 1021,7 hPa 0,0 l/m 0 min 0 min 84 W/m 0,0 km/h (0 Bft) 97,87 %
14.02.2020 13:18 7,6 C 7,2 C 6,7 C 86 % 1021,8 hPa 0,0 l/m 0 min 0 min 85 W/m 0,0 km/h (0 Bft) 97,87 %
14.02.2020 13:20 7,6 C 7,2 C 6,7 C 86 % 1021,9 hPa 0,0 l/m 0 min 0 min 72 W/m 0,0 km/h (0 Bft) 97,83 %
14.02.2020 13:22 7,6 C 7,2 C 6,7 C 86 % 1021,9 hPa 0,0 l/m 0 min 0 min 63 W/m 0,0 km/h (0 Bft) 97,87 %
14.02.2020 13:24 7,6 C 7,2 C 6,7 C 86 % 1022,0 hPa 0,0 l/m 0 min 0 min 65 W/m 12,9 km/h (3 Bft) 97,87 %
14.02.2020 13:26 7,6 C 7,2 C 6,7 C 86 % 1021,9 hPa 0,0 l/m 0 min 0 min 71 W/m 12,9 km/h (3 Bft) 93,62 %
14.02.2020 13:28 7,6 C 7,2 C 6,7 C 86 % 1021,9 hPa 0,0 l/m 0 min 0 min 72 W/m 6,4 km/h (2 Bft) 95,74 %
14.02.2020 13:30 7,6 C 7,2 C 6,7 C 86 % 1022,0 hPa 0,0 l/m 0 min 0 min 79 W/m 6,4 km/h (2 Bft) 93,62 %
14.02.2020 13:32 7,6 C 7,2 C 6,7 C 86 % 1022,0 hPa 0,0 l/m 0 min 0 min 88 W/m 0,0 km/h (0 Bft) 97,83 %
14.02.2020 13:34 7,6 C 7,8 C 6,7 C 86 % 1022,0 hPa 0,0 l/m 0 min 0 min 90 W/m 0,0 km/h (0 Bft) 97,87 %
14.02.2020 13:36 7,6 C 7,8 C 7,2 C 86 % 1022,0 hPa 0,0 l/m 0 min 0 min 97 W/m 0,0 km/h (0 Bft) 95,74 %
14.02.2020 13:38 7,7 C 7,8 C 7,2 C 86 % 1022,0 hPa 0,0 l/m 0 min 0 min 98 W/m 0,0 km/h (0 Bft) 97,56 %
14.02.2020 13:40 7,7 C 7,8 C 7,2 C 86 % 1022,0 hPa 0,0 l/m 0 min 0 min 89 W/m 9,7 km/h (2 Bft) 93,75 %
14.02.2020 13:42 7,7 C 7,8 C 7,2 C 86 % 1022,0 hPa 0,0 l/m 0 min 0 min 84 W/m 9,7 km/h (2 Bft) 93,75 %
14.02.2020 13:44 7,7 C 7,8 C 7,2 C 86 % 1022,0 hPa 0,0 l/m 0 min 0 min 92 W/m 9,7 km/h (2 Bft) 95,83 %
14.02.2020 13:46 7,7 C 7,8 C 7,2 C 86 % 1022,1 hPa 0,0 l/m 0 min 0 min 104 W/m 3,2 km/h (1 Bft) 93,62 %
14.02.2020 13:48 7,7 C 7,8 C 7,2 C 86 % 1022,1 hPa 0,0 l/m 0 min 0 min 110 W/m 3,2 km/h (1 Bft) 95,74 %
14.02.2020 13:50 7,7 C 7,8 C 7,2 C 86 % 1022,2 hPa 0,0 l/m 0 min 0 min 100 W/m 0,0 km/h (0 Bft) 95,65 %
14.02.2020 13:52 7,7 C 7,8 C 7,2 C 86 % 1022,1 hPa 0,0 l/m 0 min 0 min 88 W/m 12,9 km/h (3 Bft) 95,74 %
14.02.2020 13:54 7,7 C 7,8 C 7,2 C 86 % 1022,2 hPa 0,0 l/m 0 min 0 min 84 W/m 12,9 km/h (3 Bft) 95,83 %
14.02.2020 13:56 7,7 C 7,8 C 7,2 C 85 % 1022,2 hPa 0,0 l/m 0 min 0 min 87 W/m 16,1 km/h (3 Bft) 93,62 %
14.02.2020 13:58 7,7 C 7,8 C 7,2 C 85 % 1022,2 hPa 0,0 l/m 0 min 0 min 97 W/m 19,3 km/h (3 Bft) 95,74 %
14.02.2020 14:00 7,7 C 7,8 C 7,2 C 84 % 1022,3 hPa 0,0 l/m 0 min 0 min 100 W/m 12,9 km/h (3 Bft) 95,74 %
14.02.2020 14:02 7,7 C 7,8 C 7,2 C 84 % 1022,2 hPa 0,0 l/m 0 min 0 min 100 W/m 12,9 km/h (3 Bft) 93,48 %
14.02.2020 14:04 7,7 C 7,8 C 7,2 C 84 % 1022,3 hPa 0,0 l/m 0 min 0 min 99 W/m 9,7 km/h (2 Bft) 95,83 %
14.02.2020 14:06 7,8 C 7,8 C 7,2 C 84 % 1022,2 hPa 0,0 l/m 0 min 0 min 88 W/m 6,4 km/h (2 Bft) 95,74 %
14.02.2020 14:08 7,8 C 7,8 C 7,2 C 84 % 1022,2 hPa 0,0 l/m 0 min 0 min 91 W/m 6,4 km/h (2 Bft) 97,87 %
14.02.2020 14:10 7,8 C 7,8 C 7,2 C 84 % 1022,2 hPa 0,0 l/m 0 min 0 min 93 W/m 9,7 km/h (2 Bft) 95,74 %
14.02.2020 14:12 7,8 C 7,8 C 7,2 C 84 % 1022,2 hPa 0,0 l/m 0 min 0 min 113 W/m 0,0 km/h (0 Bft) 97,83 %
14.02.2020 14:14 7,8 C 7,8 C 7,2 C 84 % 1022,2 hPa 0,0 l/m 0 min 0 min 118 W/m 12,9 km/h (3 Bft) 93,75 %
14.02.2020 14:16 7,8 C 7,8 C 7,2 C 84 % 1022,2 hPa 0,0 l/m 0 min 0 min 114 W/m 6,4 km/h (2 Bft) 97,87 %
14.02.2020 14:18 7,8 C 7,8 C 7,2 C 84 % 1022,2 hPa 0,0 l/m 0 min 0 min 107 W/m 22,5 km/h (4 Bft) 95,74 %
14.02.2020 14:20 7,9 C 7,8 C 7,2 C 84 % 1022,1 hPa 0,0 l/m 0 min 0 min 106 W/m 9,7 km/h (2 Bft) 97,83 %
14.02.2020 14:22 7,9 C 7,8 C 7,2 C 84 % 1022,2 hPa 0,0 l/m 0 min 0 min 92 W/m 12,9 km/h (3 Bft) 97,87 %
14.02.2020 14:24 7,9 C 7,8 C 7,2 C 84 % 1022,3 hPa 0,0 l/m 0 min 0 min 97 W/m 6,4 km/h (2 Bft) 97,87 %
14.02.2020 14:26 7,9 C 7,8 C 7,2 C 84 % 1022,2 hPa 0,0 l/m 0 min 0 min 106 W/m 6,4 km/h (2 Bft) 97,87 %
14.02.2020 14:28 7,9 C 7,8 C 7,2 C 83 % 1022,2 hPa 0,0 l/m 0 min 0 min 100 W/m 16,1 km/h (3 Bft) 95,74 %
14.02.2020 14:30 7,9 C 7,8 C 7,2 C 83 % 1022,2 hPa 0,0 l/m 0 min 0 min 93 W/m 16,1 km/h (3 Bft) 97,87 %
14.02.2020 14:32 7,9 C 7,8 C 7,2 C 83 % 1022,2 hPa 0,0 l/m 0 min 0 min 107 W/m 16,1 km/h (3 Bft) 97,83 %
14.02.2020 14:34 7,9 C 7,8 C 7,2 C 83 % 1022,2 hPa 0,0 l/m 0 min 0 min 117 W/m 12,9 km/h (3 Bft) 97,87 %
14.02.2020 14:36 7,9 C 7,8 C 7,2 C 83 % 1022,2 hPa 0,0 l/m 0 min 0 min 105 W/m 6,4 km/h (2 Bft) 97,87 %
14.02.2020 14:38 7,9 C 8,3 C 7,2 C 83 % 1022,2 hPa 0,0 l/m 0 min 0 min 108 W/m 6,4 km/h (2 Bft) 100,00 %
14.02.2020 14:40 7,9 C 8,3 C 7,2 C 83 % 1022,1 hPa 0,0 l/m 0 min 0 min 134 W/m 16,1 km/h (3 Bft) 100,00 %
14.02.2020 14:42 8,0 C 8,3 C 7,8 C 83 % 1022,1 hPa 0,0 l/m 0 min 0 min 126 W/m 6,4 km/h (2 Bft) 97,83 %
14.02.2020 14:44 8,0 C 8,3 C 7,8 C 83 % 1022,1 hPa 0,0 l/m 0 min 0 min 100 W/m 6,4 km/h (2 Bft) 100,00 %
14.02.2020 14:46 8,0 C 8,3 C 7,8 C 83 % 1022,1 hPa 0,0 l/m 0 min 0 min 109 W/m 19,3 km/h (3 Bft) 97,87 %
14.02.2020 14:48 8,1 C 8,3 C 7,8 C 83 % 1022,1 hPa 0,0 l/m 0 min 0 min 107 W/m 6,4 km/h (2 Bft) 100,00 %
14.02.2020 14:50 8,1 C 8,3 C 7,8 C 83 % 1022,1 hPa 0,0 l/m 0 min 0 min 94 W/m 16,1 km/h (3 Bft) 100,00 %
14.02.2020 14:52 8,1 C 8,3 C 7,2 C 83 % 1022,0 hPa 0,0 l/m 0 min 0 min 105 W/m 6,4 km/h (2 Bft) 100,00 %
14.02.2020 14:54 8,1 C 8,3 C 7,2 C 83 % 1022,1 hPa 0,0 l/m 0 min 0 min 105 W/m 12,9 km/h (3 Bft) 100,00 %
14.02.2020 14:56 8,1 C 7,8 C 7,2 C 82 % 1022,2 hPa 0,0 l/m 0 min 0 min 88 W/m 6,4 km/h (2 Bft) 100,00 %
14.02.2020 14:58 8,1 C 7,8 C 7,2 C 83 % 1022,2 hPa 0,0 l/m 0 min 0 min 97 W/m 6,4 km/h (2 Bft) 100,00 %
14.02.2020 15:00 8,1 C 7,8 C 7,2 C 83 % 1022,2 hPa 0,0 l/m 0 min 0 min 92 W/m 9,7 km/h (2 Bft) 100,00 %
14.02.2020 15:02 8,1 C 7,8 C 7,2 C 83 % 1022,3 hPa 0,0 l/m 0 min 0 min 87 W/m 6,4 km/h (2 Bft) 100,00 %
14.02.2020 15:04 8,1 C 7,8 C 7,2 C 83 % 1022,2 hPa 0,0 l/m 0 min 0 min 84 W/m 9,7 km/h (2 Bft) 100,00 %
14.02.2020 15:06 8,1 C 7,8 C 7,2 C 83 % 1022,2 hPa 0,0 l/m 0 min 0 min 82 W/m 6,4 km/h (2 Bft) 100,00 %
14.02.2020 15:08 8,1 C 7,8 C 7,2 C 83 % 1022,2 hPa 0,0 l/m 0 min 0 min 84 W/m 9,7 km/h (2 Bft) 100,00 %
14.02.2020 15:10 8,1 C 7,8 C 7,2 C 82 % 1022,2 hPa 0,0 l/m 0 min 0 min 81 W/m 12,9 km/h (3 Bft) 100,00 %
14.02.2020 15:12 8,2 C 7,8 C 7,2 C 83 % 1022,3 hPa 0,0 l/m 0 min 0 min 85 W/m 6,4 km/h (2 Bft) 100,00 %
14.02.2020 15:14 8,2 C 7,8 C 7,2 C 83 % 1022,3 hPa 0,0 l/m 0 min 0 min 84 W/m 12,9 km/h (3 Bft) 100,00 %
14.02.2020 15:16 8,1 C 7,8 C 7,2 C 82 % 1022,4 hPa 0,0 l/m 0 min 0 min 72 W/m 6,4 km/h (2 Bft) 100,00 %
14.02.2020 15:18 8,1 C 7,8 C 7,2 C 82 % 1022,3 hPa 0,0 l/m 0 min 0 min 82 W/m 12,9 km/h (3 Bft) 100,00 %
14.02.2020 15:20 8,1 C 7,8 C 7,2 C 82 % 1022,4 hPa 0,0 l/m 0 min 0 min 79 W/m 16,1 km/h (3 Bft) 100,00 %
14.02.2020 15:22 8,1 C 7,8 C 7,2 C 82 % 1022,4 hPa 0,0 l/m 0 min 0 min 73 W/m 12,9 km/h (3 Bft) 100,00 %
14.02.2020 15:24 8,1 C 7,8 C 7,2 C 82 % 1022,4 hPa 0,0 l/m 0 min 0 min 82 W/m 12,9 km/h (3 Bft) 100,00 %
14.02.2020 15:26 8,1 C 7,8 C 7,2 C 82 % 1022,4 hPa 0,0 l/m 0 min 0 min 75 W/m 12,9 km/h (3 Bft) 100,00 %
14.02.2020 15:28 8,1 C 7,8 C 7,2 C 82 % 1022,3 hPa 0,0 l/m 0 min 0 min 91 W/m 6,4 km/h (2 Bft) 97,92 %
14.02.2020 15:30 8,1 C 7,8 C 7,2 C 82 % 1022,2 hPa 0,0 l/m 0 min 0 min 88 W/m 6,4 km/h (2 Bft) 100,00 %
14.02.2020 15:32 8,1 C 7,8 C 7,2 C 82 % 1022,2 hPa 0,0 l/m 0 min 0 min 100 W/m 12,9 km/h (3 Bft) 100,00 %
14.02.2020 15:34 8,1 C 8,3 C 7,2 C 82 % 1022,2 hPa 0,0 l/m 0 min 0 min 101 W/m 6,4 km/h (2 Bft) 100,00 %
14.02.2020 15:36 8,1 C 8,3 C 7,2 C 82 % 1022,2 hPa 0,0 l/m 0 min 0 min 107 W/m 6,4 km/h (2 Bft) 97,87 %
14.02.2020 15:38 8,1 C 8,3 C 7,8 C 82 % 1022,3 hPa 0,0 l/m 0 min 0 min 115 W/m 0,0 km/h (0 Bft) 97,87 %
14.02.2020 15:40 8,1 C 8,3 C 7,8 C 82 % 1022,4 hPa 0,0 l/m 0 min 0 min 109 W/m 12,9 km/h (3 Bft) 97,83 %
14.02.2020 15:42 8,1 C 7,8 C 7,2 C 81 % 1022,3 hPa 0,0 l/m 0 min 0 min 90 W/m 19,3 km/h (3 Bft) 95,74 %
14.02.2020 15:44 8,1 C 7,8 C 7,2 C 81 % 1022,4 hPa 0,0 l/m 0 min 0 min 84 W/m 22,5 km/h (4 Bft) 95,74 %
14.02.2020 15:46 8,1 C 7,8 C 7,2 C 80 % 1022,3 hPa 0,0 l/m 0 min 0 min 98 W/m 12,9 km/h (3 Bft) 97,87 %
14.02.2020 15:48 8,1 C 8,3 C 7,2 C 81 % 1022,3 hPa 0,0 l/m 0 min 0 min 102 W/m 6,4 km/h (2 Bft) 95,74 %
14.02.2020 15:50 8,1 C 7,8 C 7,2 C 80 % 1022,3 hPa 0,0 l/m 0 min 0 min 94 W/m 12,9 km/h (3 Bft) 97,87 %
14.02.2020 15:52 8,1 C 7,8 C 7,2 C 80 % 1022,4 hPa 0,0 l/m 0 min 0 min 102 W/m 19,3 km/h (3 Bft) 95,65 %
14.02.2020 15:54 8,1 C 7,8 C 7,2 C 80 % 1022,4 hPa 0,0 l/m 0 min 0 min 96 W/m 22,5 km/h (4 Bft) 95,74 %
14.02.2020 15:56 8,1 C 7,8 C 7,2 C 80 % 1022,4 hPa 0,0 l/m 0 min 0 min 92 W/m 16,1 km/h (3 Bft) 89,36 %
14.02.2020 15:58 8,1 C 8,3 C 7,2 C 79 % 1022,4 hPa 0,0 l/m 2 min 0 min 123 W/m 16,1 km/h (3 Bft) 95,74 %
14.02.2020 16:00 8,1 C 8,3 C 7,2 C 79 % 1022,5 hPa 0,0 l/m 0 min 0 min 104 W/m 12,9 km/h (3 Bft) 95,74 %
14.02.2020 16:02 8,1 C 7,8 C 7,2 C 79 % 1022,5 hPa 0,0 l/m 0 min 0 min 107 W/m 19,3 km/h (3 Bft) 95,74 %
14.02.2020 16:04 8,1 C 7,8 C 7,2 C 79 % 1022,6 hPa 0,0 l/m 0 min 0 min 105 W/m 19,3 km/h (3 Bft) 95,65 %
14.02.2020 16:06 8,1 C 7,8 C 7,2 C 79 % 1022,5 hPa 0,0 l/m 0 min 0 min 94 W/m 22,5 km/h (4 Bft) 95,74 %
14.02.2020 16:08 8,1 C 7,8 C 7,2 C 79 % 1022,5 hPa 0,0 l/m 2 min 0 min 122 W/m 9,7 km/h (2 Bft) 95,74 %
14.02.2020 16:10 8,1 C 7,8 C 7,2 C 79 % 1022,5 hPa 0,0 l/m 0 min 0 min 101 W/m 12,9 km/h (3 Bft) 95,74 %
14.02.2020 16:12 8,1 C 7,8 C 7,2 C 79 % 1022,5 hPa 0,0 l/m 2 min 0 min 112 W/m 12,9 km/h (3 Bft) 93,62 %
14.02.2020 16:14 8,1 C 7,8 C 7,2 C 79 % 1022,5 hPa 0,0 l/m 0 min 0 min 101 W/m 16,1 km/h (3 Bft) 91,30 %
14.02.2020 16:16 8,1 C 7,8 C 7,2 C 79 % 1022,5 hPa 0,0 l/m 0 min 0 min 82 W/m 6,4 km/h (2 Bft) 97,62 %
14.02.2020 16:18 8,0 C 7,8 C 7,2 C 80 % 1022,4 hPa 0,0 l/m 0 min 0 min 90 W/m 19,3 km/h (3 Bft) 91,49 %
14.02.2020 16:20 8,0 C 7,8 C 7,2 C 79 % 1022,4 hPa 0,0 l/m 0 min 0 min 86 W/m 12,9 km/h (3 Bft) 97,87 %
14.02.2020 16:22 8,0 C 7,8 C 7,2 C 79 % 1022,4 hPa 0,0 l/m 0 min 0 min 89 W/m 12,9 km/h (3 Bft) 95,65 %
14.02.2020 16:24 8,0 C 7,8 C 7,2 C 79 % 1022,4 hPa 0,0 l/m 0 min 0 min 79 W/m 16,1 km/h (3 Bft) 95,83 %
14.02.2020 16:26 8,0 C 7,8 C 7,2 C 79 % 1022,4 hPa 0,0 l/m 0 min 0 min 82 W/m 6,4 km/h (2 Bft) 97,87 %
14.02.2020 16:28 7,9 C 7,8 C 7,2 C 79 % 1022,4 hPa 0,0 l/m 0 min 0 min 77 W/m 6,4 km/h (2 Bft) 100,00 %
14.02.2020 16:30 7,9 C 7,8 C 7,2 C 80 % 1022,4 hPa 0,0 l/m 0 min 0 min 73 W/m 6,4 km/h (2 Bft) 100,00 %
14.02.2020 16:32 7,9 C 7,8 C 7,2 C 80 % 1022,4 hPa 0,0 l/m 0 min 0 min 73 W/m 6,4 km/h (2 Bft) 100,00 %
14.02.2020 16:34 7,9 C 7,8 C 7,2 C 80 % 1022,4 hPa 0,0 l/m 0 min 0 min 73 W/m 3,2 km/h (1 Bft) 93,62 %
14.02.2020 16:36 7,9 C 7,8 C 7,2 C 80 % 1022,4 hPa 0,0 l/m 0 min 0 min 70 W/m 12,9 km/h (3 Bft) 100,00 %
14.02.2020 16:38 7,9 C 7,8 C 6,7 C 80 % 1022,4 hPa 0,0 l/m 0 min 0 min 67 W/m 12,9 km/h (3 Bft) 100,00 %
14.02.2020 16:40 7,9 C 7,2 C 6,7 C 80 % 1022,4 hPa 0,0 l/m 0 min 0 min 58 W/m 12,9 km/h (3 Bft) 97,87 %
14.02.2020 16:42 7,9 C 7,2 C 6,7 C 80 % 1022,5 hPa 0,0 l/m 0 min 0 min 50 W/m 16,1 km/h (3 Bft) 97,87 %
14.02.2020 16:44 7,9 C 7,2 C 6,7 C 80 % 1022,5 hPa 0,0 l/m 0 min 0 min 47 W/m 6,4 km/h (2 Bft) 100,00 %
14.02.2020 16:46 7,9 C 7,2 C 6,7 C 80 % 1022,5 hPa 0,0 l/m 0 min 0 min 48 W/m 16,1 km/h (3 Bft) 97,92 %
14.02.2020 16:48 7,9 C 7,2 C 6,7 C 80 % 1022,5 hPa 0,0 l/m 0 min 0 min 41 W/m 12,9 km/h (3 Bft) 100,00 %
14.02.2020 16:50 7,9 C 7,2 C 6,7 C 80 % 1022,5 hPa 0,0 l/m 0 min 0 min 36 W/m 6,4 km/h (2 Bft) 97,83 %
14.02.2020 16:52 7,9 C 7,2 C 6,7 C 80 % 1022,5 hPa 0,0 l/m 0 min 0 min 31 W/m 3,2 km/h (1 Bft) 97,87 %
14.02.2020 16:54 7,9 C 7,2 C 6,7 C 80 % 1022,5 hPa 0,0 l/m 0 min 0 min 31 W/m 0,0 km/h (0 Bft) 97,87 %
14.02.2020 16:56 7,9 C 7,2 C 6,7 C 80 % 1022,5 hPa 0,0 l/m 0 min 0 min 29 W/m 0,0 km/h (0 Bft) 97,87 %
14.02.2020 16:58 7,9 C 7,2 C 6,7 C 80 % 1022,5 hPa 0,0 l/m 0 min 0 min 29 W/m 12,9 km/h (3 Bft) 97,87 %
14.02.2020 17:00 7,9 C 7,2 C 6,7 C 80 % 1022,5 hPa 0,0 l/m 0 min 0 min 28 W/m 6,4 km/h (2 Bft) 95,74 %
14.02.2020 17:02 7,9 C 7,2 C 6,7 C 80 % 1022,5 hPa 0,0 l/m 0 min 0 min 28 W/m 6,4 km/h (2 Bft) 97,83 %
14.02.2020 17:04 7,8 C 7,2 C 6,7 C 80 % 1022,6 hPa 0,0 l/m 0 min 0 min 26 W/m 12,9 km/h (3 Bft) 97,87 %
14.02.2020 17:06 7,8 C 7,2 C 6,7 C 81 % 1022,5 hPa 0,0 l/m 0 min 0 min 25 W/m 12,9 km/h (3 Bft) 97,62 %
14.02.2020 17:08 7,8 C 7,2 C 6,7 C 81 % 1022,6 hPa 0,0 l/m 0 min 0 min 23 W/m 12,9 km/h (3 Bft) 95,74 %
14.02.2020 17:10 7,8 C 7,2 C 6,7 C 81 % 1022,5 hPa 0,0 l/m 0 min 0 min 21 W/m 12,9 km/h (3 Bft) 97,87 %
14.02.2020 17:12 7,8 C 7,2 C 6,7 C 81 % 1022,6 hPa 0,0 l/m 0 min 0 min 19 W/m 16,1 km/h (3 Bft) 95,74 %
14.02.2020 17:14 7,8 C 7,2 C 6,7 C 81 % 1022,6 hPa 0,0 l/m 0 min 0 min 19 W/m 3,2 km/h (1 Bft) 97,92 %
14.02.2020 17:16 7,8 C 7,2 C 6,7 C 81 % 1022,6 hPa 0,0 l/m 0 min 0 min 18 W/m 12,9 km/h (3 Bft) 95,83 %
14.02.2020 17:18 7,8 C 7,2 C 6,7 C 81 % 1022,7 hPa 0,0 l/m 0 min 0 min 18 W/m 6,4 km/h (2 Bft) 97,87 %
14.02.2020 17:20 7,8 C 7,2 C 6,7 C 81 % 1022,7 hPa 0,0 l/m 0 min 0 min 17 W/m 6,4 km/h (2 Bft) 97,87 %
14.02.2020 17:22 7,8 C 7,2 C 6,7 C 81 % 1022,7 hPa 0,0 l/m 0 min 0 min 15 W/m 12,9 km/h (3 Bft) 97,92 %
14.02.2020 17:24 7,8 C 7,2 C 6,7 C 81 % 1022,7 hPa 0,0 l/m 0 min 0 min 12 W/m 3,2 km/h (1 Bft) 95,74 %
14.02.2020 17:26 7,8 C 7,2 C 6,7 C 81 % 1022,7 hPa 0,0 l/m 0 min 0 min 11 W/m 0,0 km/h (0 Bft) 97,87 %
14.02.2020 17:28 7,8 C 7,2 C 6,7 C 81 % 1022,8 hPa 0,0 l/m 0 min 0 min 10 W/m 12,9 km/h (3 Bft) 97,87 %
14.02.2020 17:30 7,8 C 7,2 C 6,7 C 81 % 1022,8 hPa 0,0 l/m 0 min 0 min 8 W/m 6,4 km/h (2 Bft) 97,87 %
14.02.2020 17:32 7,8 C 7,2 C 6,7 C 81 % 1022,7 hPa 0,0 l/m 0 min 0 min 7 W/m 12,9 km/h (3 Bft) 95,74 %
14.02.2020 17:34 7,8 C 7,2 C 6,7 C 82 % 1022,8 hPa 0,0 l/m 0 min 0 min 7 W/m 12,9 km/h (3 Bft) 97,87 %
14.02.2020 17:36 7,8 C 7,2 C 6,7 C 82 % 1022,9 hPa 0,0 l/m 0 min 0 min 5 W/m 9,7 km/h (2 Bft) 97,87 %
14.02.2020 17:38 7,8 C 7,2 C 6,7 C 82 % 1022,9 hPa 0,0 l/m 0 min 0 min 3 W/m 9,7 km/h (2 Bft) 97,83 %
14.02.2020 17:40 7,8 C 7,2 C 6,7 C 82 % 1023,0 hPa 0,0 l/m 0 min 0 min 0 W/m 6,4 km/h (2 Bft) 93,62 %
14.02.2020 17:42 7,8 C 7,2 C 6,7 C 82 % 1023,0 hPa 0,0 l/m 0 min 0 min 0 W/m 19,3 km/h (3 Bft) 97,87 %
14.02.2020 17:44 7,8 C 7,2 C 6,7 C 82 % 1023,0 hPa 0,0 l/m 0 min 0 min 0 W/m 9,7 km/h (2 Bft) 100,00 %
14.02.2020 17:46 7,8 C 7,2 C 6,7 C 82 % 1023,1 hPa 0,0 l/m 0 min 0 min 0 W/m 16,1 km/h (3 Bft) 100,00 %
14.02.2020 17:48 7,8 C 7,2 C 6,7 C 82 % 1023,2 hPa 0,0 l/m 0 min 0 min 0 W/m 12,9 km/h (3 Bft) 100,00 %
14.02.2020 17:50 7,8 C 7,2 C 6,7 C 83 % 1023,3 hPa 0,0 l/m 0 min 0 min 0 W/m 12,9 km/h (3 Bft) 100,00 %
14.02.2020 17:52 7,8 C 7,2 C 6,7 C 83 % 1023,3 hPa 0,0 l/m 0 min 0 min 0 W/m 6,4 km/h (2 Bft) 87,23 %
14.02.2020 17:54 7,9 C 7,2 C 6,7 C 83 % 1023,3 hPa 0,0 l/m 0 min 0 min 0 W/m 12,9 km/h (3 Bft) 70,21 %
14.02.2020 17:56 7,9 C 7,2 C 6,7 C 83 % 1023,4 hPa 0,0 l/m 0 min 0 min 0 W/m 6,4 km/h (2 Bft) 100,00 %
14.02.2020 17:58 7,9 C 7,2 C 6,7 C 83 % 1023,3 hPa 0,0 l/m 0 min 0 min 0 W/m 6,4 km/h (2 Bft) 100,00 %
14.02.2020 18:00 7,9 C 7,2 C 6,7 C 83 % 1023,3 hPa 0,0 l/m 0 min 0 min 0 W/m 3,2 km/h (1 Bft) 100,00 %
14.02.2020 18:02 7,9 C 7,2 C 6,7 C 83 % 1023,3 hPa 0,0 l/m 0 min 0 min 0 W/m 0,0 km/h (0 Bft) 100,00 %
14.02.2020 18:04 7,9 C 7,2 C 6,7 C 83 % 1023,3 hPa 0,0 l/m 0 min 0 min 0 W/m 12,9 km/h (3 Bft) 100,00 %
14.02.2020 18:06 7,9 C 7,2 C 6,7 C 83 % 1023,4 hPa 0,0 l/m 0 min 0 min 0 W/m 16,1 km/h (3 Bft) 100,00 %
14.02.2020 18:08 7,9 C 7,2 C 6,7 C 83 % 1023,4 hPa 0,0 l/m 0 min 0 min 0 W/m 6,4 km/h (2 Bft) 97,87 %
14.02.2020 18:10 7,9 C 7,2 C 6,7 C 83 % 1023,5 hPa 0,0 l/m 0 min 0 min 0 W/m 12,9 km/h (3 Bft) 100,00 %
14.02.2020 18:12 7,9 C 7,2 C 6,7 C 83 % 1023,5 hPa 0,0 l/m 0 min 0 min 0 W/m 6,4 km/h (2 Bft) 97,83 %
14.02.2020 18:14 7,9 C 7,2 C 6,7 C 83 % 1023,6 hPa 0,0 l/m 0 min 0 min 0 W/m 12,9 km/h (3 Bft) 100,00 %
14.02.2020 18:16 7,9 C 7,2 C 6,7 C 83 % 1023,6 hPa 0,0 l/m 0 min 0 min 0 W/m 6,4 km/h (2 Bft) 100,00 %
14.02.2020 18:18 7,9 C 7,2 C 6,7 C 83 % 1023,6 hPa 0,0 l/m 0 min 0 min 0 W/m 6,4 km/h (2 Bft) 97,87 %
14.02.2020 18:20 7,9 C 7,2 C 6,7 C 84 % 1023,6 hPa 0,0 l/m 0 min 0 min 0 W/m 12,9 km/h (3 Bft) 97,87 %
14.02.2020 18:22 7,9 C 7,2 C 6,7 C 84 % 1023,6 hPa 0,0 l/m 0 min 0 min 0 W/m 12,9 km/h (3 Bft) 97,83 %
14.02.2020 18:24 7,9 C 7,2 C 6,7 C 84 % 1023,6 hPa 0,0 l/m 0 min 0 min 0 W/m 12,9 km/h (3 Bft) 100,00 %
14.02.2020 18:26 7,9 C 7,2 C 6,7 C 84 % 1023,6 hPa 0,0 l/m 0 min 0 min 0 W/m 12,9 km/h (3 Bft) 97,62 %
14.02.2020 18:28 7,9 C 7,2 C 6,7 C 84 % 1023,6 hPa 0,0 l/m 0 min 0 min 0 W/m 6,4 km/h (2 Bft) 97,87 %
14.02.2020 18:30 7,9 C 7,2 C 6,7 C 84 % 1023,7 hPa 0,0 l/m 0 min 0 min 0 W/m 6,4 km/h (2 Bft) 97,92 %
14.02.2020 18:32 7,9 C 7,2 C 6,7 C 84 % 1023,7 hPa 0,0 l/m 0 min 0 min 0 W/m 12,9 km/h (3 Bft) 97,92 %
14.02.2020 18:34 7,9 C 7,2 C 6,7 C 84 % 1023,7 hPa 0,0 l/m 0 min 0 min 0 W/m 6,4 km/h (2 Bft) 95,83 %
14.02.2020 18:36 7,8 C 7,2 C 6,7 C 84 % 1023,7 hPa 0,0 l/m 0 min 0 min 0 W/m 12,9 km/h (3 Bft) 95,83 %
14.02.2020 18:38 7,8 C 7,2 C 6,7 C 85 % 1023,8 hPa 0,0 l/m 0 min 0 min 0 W/m 6,4 km/h (2 Bft) 97,87 %
14.02.2020 18:40 7,8 C 7,2 C 6,7 C 85 % 1023,8 hPa 0,0 l/m 0 min 0 min 0 W/m 12,9 km/h (3 Bft) 97,83 %
14.02.2020 18:42 7,8 C 7,2 C 6,7 C 85 % 1023,8 hPa 0,0 l/m 0 min 0 min 0 W/m 12,9 km/h (3 Bft) 95,74 %
14.02.2020 18:44 7,8 C 7,2 C 6,7 C 85 % 1023,8 hPa 0,0 l/m 0 min 0 min 0 W/m 6,4 km/h (2 Bft) 97,92 %
14.02.2020 18:46 7,8 C 7,2 C 6,7 C 85 % 1023,8 hPa 0,0 l/m 0 min 0 min 0 W/m 6,4 km/h (2 Bft) 97,83 %
14.02.2020 18:48 7,8 C 7,2 C 6,7 C 85 % 1023,7 hPa 0,0 l/m 0 min 0 min 0 W/m 6,4 km/h (2 Bft) 93,62 %
14.02.2020 18:50 7,8 C 7,2 C 6,7 C 85 % 1023,7 hPa 0,0 l/m 0 min 0 min 0 W/m 3,2 km/h (1 Bft) 93,62 %
14.02.2020 18:52 7,8 C 7,2 C 6,7 C 85 % 1023,7 hPa 0,0 l/m 0 min 0 min 0 W/m 12,9 km/h (3 Bft) 95,74 %
14.02.2020 18:54 7,8 C 7,2 C 6,7 C 85 % 1023,7 hPa 0,0 l/m 0 min 0 min 0 W/m 12,9 km/h (3 Bft) 95,74 %
14.02.2020 18:56 7,8 C 7,2 C 6,7 C 85 % 1023,8 hPa 0,0 l/m 0 min 0 min 0 W/m 12,9 km/h (3 Bft) 93,62 %
14.02.2020 18:58 7,8 C 7,2 C 6,7 C 85 % 1023,8 hPa 0,0 l/m 0 min 0 min 0 W/m 16,1 km/h (3 Bft) 95,65 %
14.02.2020 19:00 7,8 C 7,2 C 6,7 C 85 % 1023,8 hPa 0,0 l/m 0 min 0 min 0 W/m 6,4 km/h (2 Bft) 95,74 %
14.02.2020 19:02 7,8 C 7,2 C 6,7 C 85 % 1023,7 hPa 0,0 l/m 0 min 0 min 0 W/m 3,2 km/h (1 Bft) 95,74 %
14.02.2020 19:04 7,8 C 7,2 C 6,7 C 85 % 1023,7 hPa 0,0 l/m 0 min 0 min 0 W/m 6,4 km/h (2 Bft) 97,87 %
14.02.2020 19:06 7,8 C 7,2 C 6,7 C 85 % 1023,8 hPa 0,0 l/m 0 min 0 min 0 W/m 12,9 km/h (3 Bft) 97,87 %
14.02.2020 19:08 7,8 C 7,2 C 6,7 C 85 % 1023,7 hPa 0,0 l/m 0 min 0 min 0 W/m 12,9 km/h (3 Bft) 97,87 %
14.02.2020 19:10 7,8 C 7,2 C 6,7 C 85 % 1023,7 hPa 0,0 l/m 0 min 0 min 0 W/m 6,4 km/h (2 Bft) 93,48 %
14.02.2020 19:12 7,8 C 7,2 C 6,7 C 85 % 1023,7 hPa 0,0 l/m 0 min 0 min 0 W/m 6,4 km/h (2 Bft) 95,74 %
14.02.2020 19:14 7,8 C 7,2 C 6,7 C 85 % 1023,8 hPa 0,0 l/m 0 min 0 min 0 W/m 6,4 km/h (2 Bft) 93,62 %
14.02.2020 19:16 7,8 C 7,2 C 6,7 C 85 % 1023,7 hPa 0,0 l/m 0 min 0 min 0 W/m 6,4 km/h (2 Bft) 97,56 %
14.02.2020 19:18 7,8 C 7,2 C 6,7 C 85 % 1023,7 hPa 0,0 l/m 0 min 0 min 0 W/m 12,9 km/h (3 Bft) 97,92 %
14.02.2020 19:20 7,8 C 7,2 C 6,7 C 85 % 1023,7 hPa 0,0 l/m 0 min 0 min 0 W/m 6,4 km/h (2 Bft) 97,92 %
14.02.2020 19:22 7,8 C 7,2 C 6,7 C 86 % 1023,7 hPa 0,0 l/m 0 min 0 min 0 W/m 16,1 km/h (3 Bft) 97,92 %
14.02.2020 19:24 7,8 C 7,2 C 6,7 C 86 % 1023,7 hPa 0,0 l/m 0 min 0 min 0 W/m 12,9 km/h (3 Bft) 97,92 %
14.02.2020 19:26 7,8 C 7,2 C 6,7 C 86 % 1023,7 hPa 0,0 l/m 0 min 0 min 0 W/m 12,9 km/h (3 Bft) 54,55 %
14.02.2020 19:28 7,8 C 7,2 C 6,7 C 86 % 1023,8 hPa 0,0 l/m 0 min 0 min 0 W/m 6,4 km/h (2 Bft) 97,92 %
14.02.2020 19:30 7,8 C 7,2 C 6,7 C 86 % 1023,8 hPa 0,0 l/m 0 min 0 min 0 W/m 12,9 km/h (3 Bft) 97,87 %
14.02.2020 19:32 7,8 C 7,2 C 6,7 C 86 % 1023,9 hPa 0,0 l/m 0 min 0 min 0 W/m 12,9 km/h (3 Bft) 97,83 %
14.02.2020 19:34 7,8 C 7,2 C 6,7 C 86 % 1024,0 hPa 0,0 l/m 0 min 0 min 0 W/m 12,9 km/h (3 Bft) 97,87 %
14.02.2020 19:36 7,8 C 7,2 C 6,7 C 86 % 1024,0 hPa 0,0 l/m 0 min 0 min 0 W/m 12,9 km/h (3 Bft) 95,74 %
14.02.2020 19:38 7,8 C 7,2 C 6,7 C 86 % 1024,0 hPa 0,0 l/m 0 min 0 min 0 W/m 12,9 km/h (3 Bft) 93,62 %
14.02.2020 19:40 7,8 C 7,2 C 6,7 C 86 % 1024,0 hPa 0,0 l/m 0 min 0 min 0 W/m 12,9 km/h (3 Bft) 95,74 %
14.02.2020 19:42 7,8 C 7,2 C 6,7 C 86 % 1024,0 hPa 0,0 l/m 0 min 0 min 0 W/m 12,9 km/h (3 Bft) 95,74 %
14.02.2020 19:44 7,8 C 7,2 C 6,7 C 86 % 1024,0 hPa 0,0 l/m 0 min 0 min 0 W/m 6,4 km/h (2 Bft) 97,56 %
14.02.2020 19:46 7,8 C 7,2 C 6,7 C 86 % 1024,0 hPa 0,0 l/m 0 min 0 min 0 W/m 12,9 km/h (3 Bft) 97,87 %
14.02.2020 19:48 7,8 C 7,2 C 6,7 C 86 % 1023,9 hPa 0,0 l/m 0 min 0 min 0 W/m 6,4 km/h (2 Bft) 95,83 %
14.02.2020 19:50 7,7 C 7,2 C 6,7 C 86 % 1023,9 hPa 0,0 l/m 0 min 0 min 0 W/m 16,1 km/h (3 Bft) 95,74 %
14.02.2020 19:52 7,8 C 7,2 C 6,7 C 86 % 1024,0 hPa 0,0 l/m 0 min 0 min 0 W/m 6,4 km/h (2 Bft) 97,92 %
14.02.2020 19:54 7,8 C 7,2 C 6,7 C 86 % 1024,0 hPa 0,0 l/m 0 min 0 min 0 W/m 16,1 km/h (3 Bft) 97,92 %
14.02.2020 19:56 7,7 C 7,2 C 6,7 C 86 % 1024,0 hPa 0,0 l/m 0 min 0 min 0 W/m 6,4 km/h (2 Bft) 97,87 %
14.02.2020 19:58 7,7 C 7,2 C 6,7 C 86 % 1024,0 hPa 0,0 l/m 0 min 0 min 0 W/m 12,9 km/h (3 Bft) 97,87 %
14.02.2020 20:00 7,7 C 7,2 C 6,7 C 86 % 1024,0 hPa 0,0 l/m 0 min 0 min 0 W/m 6,4 km/h (2 Bft) 97,87 %
14.02.2020 20:02 7,7 C 7,2 C 6,7 C 86 % 1024,0 hPa 0,0 l/m 0 min 0 min 0 W/m 6,4 km/h (2 Bft) 97,83 %
14.02.2020 20:04 7,7 C 7,2 C 6,1 C 86 % 1024,0 hPa 0,0 l/m 0 min 0 min 0 W/m 6,4 km/h (2 Bft) 97,87 %
14.02.2020 20:06 7,7 C 7,2 C 6,1 C 86 % 1024,0 hPa 0,0 l/m 0 min 0 min 0 W/m 16,1 km/h (3 Bft) 97,87 %
14.02.2020 20:08 7,7 C 7,2 C 6,7 C 86 % 1023,9 hPa 0,0 l/m 0 min 0 min 0 W/m 12,9 km/h (3 Bft) 97,87 %
14.02.2020 20:10 7,7 C 7,2 C 6,7 C 86 % 1023,9 hPa 0,0 l/m 0 min 0 min 0 W/m 16,1 km/h (3 Bft) 97,87 %
14.02.2020 20:12 7,7 C 7,2 C 6,1 C 86 % 1023,9 hPa 0,0 l/m 0 min 0 min 0 W/m 12,9 km/h (3 Bft) 95,65 %
14.02.2020 20:14 7,7 C 7,2 C 6,1 C 86 % 1023,9 hPa 0,0 l/m 0 min 0 min 0 W/m 6,4 km/h (2 Bft) 95,74 %
14.02.2020 20:16 7,7 C 7,2 C 6,1 C 86 % 1024,0 hPa 0,0 l/m 0 min 0 min 0 W/m 12,9 km/h (3 Bft) 97,87 %
14.02.2020 20:18 7,7 C 7,2 C 6,1 C 86 % 1024,0 hPa 0,0 l/m 0 min 0 min 0 W/m 6,4 km/h (2 Bft) 97,87 %
14.02.2020 20:20 7,7 C 7,2 C 6,7 C 86 % 1024,0 hPa 0,0 l/m 0 min 0 min 0 W/m 12,9 km/h (3 Bft) 95,74 %
14.02.2020 20:22 7,7 C 7,2 C 6,7 C 86 % 1024,0 hPa 0,0 l/m 0 min 0 min 0 W/m 6,4 km/h (2 Bft) 97,87 %
14.02.2020 20:24 7,7 C 7,2 C 6,7 C 86 % 1024,0 hPa 0,0 l/m 0 min 0 min 0 W/m 6,4 km/h (2 Bft) 100,00 %
14.02.2020 20:26 7,7 C 7,2 C 6,1 C 86 % 1024,0 hPa 0,0 l/m 0 min 0 min 0 W/m 6,4 km/h (2 Bft) 95,74 %
14.02.2020 20:28 7,7 C 7,2 C 6,7 C 86 % 1023,9 hPa 0,0 l/m 0 min 0 min 0 W/m 12,9 km/h (3 Bft) 100,00 %
14.02.2020 20:30 7,7 C 7,2 C 6,7 C 86 % 1023,9 hPa 0,0 l/m 0 min 0 min 0 W/m 12,9 km/h (3 Bft) 100,00 %
14.02.2020 20:32 7,7 C 7,2 C 6,7 C 86 % 1023,9 hPa 0,0 l/m 0 min 0 min 0 W/m 12,9 km/h (3 Bft) 97,87 %
14.02.2020 20:34 7,7 C 7,2 C 6,7 C 86 % 1023,9 hPa 0,0 l/m 0 min 0 min 0 W/m 6,4 km/h (2 Bft) 100,00 %
14.02.2020 20:36 7,7 C 7,2 C 6,1 C 86 % 1023,9 hPa 0,0 l/m 0 min 0 min 0 W/m 6,4 km/h (2 Bft) 100,00 %
14.02.2020 20:38 7,7 C 7,2 C 6,1 C 86 % 1023,9 hPa 0,0 l/m 0 min 0 min 0 W/m 12,9 km/h (3 Bft) 100,00 %
14.02.2020 20:40 7,7 C 7,2 C 6,1 C 86 % 1023,9 hPa 0,0 l/m 0 min 0 min 0 W/m 12,9 km/h (3 Bft) 97,87 %
14.02.2020 20:42 7,7 C 7,2 C 6,1 C 86 % 1023,9 hPa 0,0 l/m 0 min 0 min 0 W/m 12,9 km/h (3 Bft) 100,00 %
14.02.2020 20:44 7,7 C 7,2 C 6,1 C 86 % 1023,9 hPa 0,0 l/m 0 min 0 min 0 W/m 6,4 km/h (2 Bft) 100,00 %
14.02.2020 20:46 7,7 C 7,2 C 6,1 C 86 % 1023,9 hPa 0,0 l/m 0 min 0 min 0 W/m 6,4 km/h (2 Bft) 100,00 %
14.02.2020 20:48 7,7 C 7,2 C 6,1 C 86 % 1023,9 hPa 0,0 l/m 0 min 0 min 0 W/m 12,9 km/h (3 Bft) 100,00 %
14.02.2020 20:50 7,7 C 7,2 C 6,1 C 86 % 1023,9 hPa 0,0 l/m 0 min 0 min 0 W/m 12,9 km/h (3 Bft) 100,00 %
14.02.2020 20:52 7,7 C 7,2 C 6,1 C 86 % 1023,8 hPa 0,0 l/m 0 min 0 min 0 W/m 12,9 km/h (3 Bft) 97,87 %
14.02.2020 20:54 7,7 C 7,2 C 6,1 C 86 % 1023,8 hPa 0,0 l/m 0 min 0 min 0 W/m 16,1 km/h (3 Bft) 100,00 %
14.02.2020 20:56 7,7 C 7,2 C 6,1 C 86 % 1023,8 hPa 0,0 l/m 0 min 0 min 0 W/m 12,9 km/h (3 Bft) 95,74 %
14.02.2020 20:58 7,7 C 7,2 C 6,1 C 86 % 1023,7 hPa 0,0 l/m 0 min 0 min 0 W/m 16,1 km/h (3 Bft) 97,83 %
14.02.2020 21:00 7,7 C 7,2 C 6,1 C 86 % 1023,7 hPa 0,0 l/m 0 min 0 min 0 W/m 12,9 km/h (3 Bft) 97,87 %
14.02.2020 21:02 7,7 C 7,2 C 6,1 C 86 % 1023,6 hPa 0,0 l/m 0 min 0 min 0 W/m 16,1 km/h (3 Bft) 97,87 %
14.02.2020 21:04 7,7 C 7,2 C 6,1 C 86 % 1023,6 hPa 0,0 l/m 0 min 0 min 0 W/m 16,1 km/h (3 Bft) 97,87 %
14.02.2020 21:06 7,7 C 7,2 C 6,1 C 86 % 1023,7 hPa 0,0 l/m 0 min 0 min 0 W/m 12,9 km/h (3 Bft) 97,87 %
14.02.2020 21:08 7,7 C 7,2 C 6,1 C 86 % 1023,7 hPa 0,0 l/m 0 min 0 min 0 W/m 12,9 km/h (3 Bft) 97,87 %
14.02.2020 21:10 7,7 C 7,2 C 6,7 C 86 % 1023,7 hPa 0,0 l/m 0 min 0 min 0 W/m 12,9 km/h (3 Bft) 95,65 %
14.02.2020 21:15 7,7 C 7,2 C 6,7 C 86 % 1023,7 hPa 0,0 l/m 0 min 0 min 0 W/m 16,1 km/h (3 Bft) 100,00 %
14.02.2020 21:20 7,7 C 6,7 C 6,1 C 86 % 1023,6 hPa 0,0 l/m 0 min 0 min 0 W/m 12,9 km/h (3 Bft) 98,25 %
14.02.2020 21:25 7,6 C 6,7 C 6,1 C 86 % 1023,6 hPa 0,0 l/m 0 min 0 min 0 W/m 19,3 km/h (3 Bft) 99,12 %
14.02.2020 21:30 7,6 C 6,7 C 6,1 C 86 % 1023,6 hPa 0,0 l/m 0 min 0 min 0 W/m 16,1 km/h (3 Bft) 100,00 %
14.02.2020 21:35 7,6 C 6,7 C 6,1 C 86 % 1023,6 hPa 0,0 l/m 0 min 0 min 0 W/m 16,1 km/h (3 Bft) 99,12 %
14.02.2020 21:40 7,6 C 6,7 C 5,6 C 86 % 1023,6 hPa 0,0 l/m 0 min 0 min 0 W/m 16,1 km/h (3 Bft) 100,00 %
14.02.2020 21:45 7,5 C 6,7 C 5,6 C 86 % 1023,7 hPa 0,0 l/m 0 min 0 min 0 W/m 19,3 km/h (3 Bft) 100,00 %
14.02.2020 21:50 7,4 C 6,7 C 5,6 C 86 % 1023,6 hPa 0,0 l/m 0 min 0 min 0 W/m 16,1 km/h (3 Bft) 100,00 %
14.02.2020 21:55 7,4 C 6,7 C 5,6 C 86 % 1023,7 hPa 0,0 l/m 0 min 0 min 0 W/m 12,9 km/h (3 Bft) 100,00 %
14.02.2020 22:00 7,4 C 6,7 C 5,6 C 86 % 1023,7 hPa 0,0 l/m 0 min 0 min 0 W/m 16,1 km/h (3 Bft) 100,00 %
14.02.2020 22:05 7,3 C 6,7 C 5,6 C 86 % 1023,6 hPa 0,0 l/m 0 min 0 min 0 W/m 19,3 km/h (3 Bft) 100,00 %
14.02.2020 22:10 7,3 C 6,1 C 5,6 C 86 % 1023,6 hPa 0,0 l/m 0 min 0 min 0 W/m 16,1 km/h (3 Bft) 100,00 %
14.02.2020 22:15 7,2 C 6,1 C 5,6 C 87 % 1023,6 hPa 0,0 l/m 0 min 0 min 0 W/m 16,1 km/h (3 Bft) 100,00 %
14.02.2020 22:20 7,2 C 6,1 C 5,6 C 87 % 1023,6 hPa 0,0 l/m 0 min 0 min 0 W/m 16,1 km/h (3 Bft) 98,25 %
14.02.2020 22:25 7,2 C 6,1 C 5,6 C 87 % 1023,6 hPa 0,0 l/m 0 min 0 min 0 W/m 16,1 km/h (3 Bft) 98,25 %
14.02.2020 22:30 7,1 C 6,1 C 5,6 C 87 % 1023,5 hPa 0,0 l/m 0 min 0 min 0 W/m 12,9 km/h (3 Bft) 98,25 %
14.02.2020 22:35 7,1 C 6,1 C 5,6 C 87 % 1023,5 hPa 0,0 l/m 0 min 0 min 0 W/m 16,1 km/h (3 Bft) 98,25 %
14.02.2020 22:40 7,0 C 6,1 C 5,6 C 87 % 1023,6 hPa 0,0 l/m 0 min 0 min 0 W/m 16,1 km/h (3 Bft) 97,37 %
14.02.2020 22:45 7,0 C 6,1 C 5,6 C 87 % 1023,4 hPa 0,0 l/m 0 min 0 min 0 W/m 16,1 km/h (3 Bft) 97,37 %
14.02.2020 22:50 6,9 C 6,1 C 5,6 C 88 % 1023,4 hPa 0,0 l/m 0 min 0 min 0 W/m 16,1 km/h (3 Bft) 98,25 %
14.02.2020 22:55 6,9 C 6,1 C 5,6 C 88 % 1023,4 hPa 0,0 l/m 0 min 0 min 0 W/m 16,1 km/h (3 Bft) 97,37 %
14.02.2020 23:00 6,8 C 6,1 C 5,0 C 88 % 1023,4 hPa 0,0 l/m 0 min 0 min 0 W/m 16,1 km/h (3 Bft) 100,00 %
14.02.2020 23:05 6,8 C 6,1 C 5,0 C 88 % 1023,3 hPa 0,0 l/m 0 min 0 min 0 W/m 16,1 km/h (3 Bft) 99,12 %
14.02.2020 23:10 6,8 C 6,1 C 5,0 C 88 % 1023,3 hPa 0,0 l/m 0 min 0 min 0 W/m 12,9 km/h (3 Bft) 100,00 %
14.02.2020 23:15 6,8 C 6,1 C 5,0 C 88 % 1023,3 hPa 0,0 l/m 0 min 0 min 0 W/m 19,3 km/h (3 Bft) 100,00 %
14.02.2020 23:20 6,7 C 6,1 C 5,0 C 88 % 1023,3 hPa 0,0 l/m 0 min 0 min 0 W/m 16,1 km/h (3 Bft) 100,00 %
14.02.2020 23:25 6,7 C 6,1 C 5,0 C 88 % 1023,4 hPa 0,0 l/m 0 min 0 min 0 W/m 16,1 km/h (3 Bft) 100,00 %
14.02.2020 23:30 6,7 C 6,1 C 5,0 C 89 % 1023,3 hPa 0,0 l/m 0 min 0 min 0 W/m 19,3 km/h (3 Bft) 100,00 %
14.02.2020 23:32 6,7 C 6,1 C 5,0 C 89 % 1023,3 hPa 0,0 l/m 0 min 0 min 0 W/m 16,1 km/h (3 Bft) 100,00 %
14.02.2020 23:34 6,7 C 6,1 C 5,0 C 89 % 1023,2 hPa 0,0 l/m 0 min 0 min 0 W/m 12,9 km/h (3 Bft) 100,00 %
14.02.2020 23:36 6,7 C 5,6 C 5,0 C 89 % 1023,2 hPa 0,0 l/m 0 min 0 min 0 W/m 16,1 km/h (3 Bft) 100,00 %
14.02.2020 23:38 6,7 C 5,6 C 5,0 C 88 % 1023,2 hPa 0,0 l/m 0 min 0 min 0 W/m 16,1 km/h (3 Bft) 100,00 %
14.02.2020 23:40 6,7 C 6,1 C 5,0 C 88 % 1023,1 hPa 0,0 l/m 0 min 0 min 0 W/m 16,1 km/h (3 Bft) 97,87 %
14.02.2020 23:42 6,6 C 5,6 C 5,0 C 88 % 1023,1 hPa 0,0 l/m 0 min 0 min 0 W/m 12,9 km/h (3 Bft) 97,83 %
14.02.2020 23:44 6,6 C 5,6 C 5,0 C 88 % 1023,2 hPa 0,0 l/m 0 min 0 min 0 W/m 6,4 km/h (2 Bft) 52,27 %
14.02.2020 23:46 6,6 C 5,6 C 5,0 C 89 % 1023,2 hPa 0,0 l/m 0 min 0 min 0 W/m 6,4 km/h (2 Bft) 95,74 %
14.02.2020 23:48 6,6 C 5,6 C 5,0 C 89 % 1023,2 hPa 0,0 l/m 0 min 0 min 0 W/m 16,1 km/h (3 Bft) 97,87 %
14.02.2020 23:50 6,6 C 5,6 C 5,0 C 89 % 1023,2 hPa 0,0 l/m 0 min 0 min 0 W/m 16,1 km/h (3 Bft) 97,87 %
14.02.2020 23:52 6,6 C 5,6 C 5,0 C 89 % 1023,2 hPa 0,0 l/m 0 min 0 min 0 W/m 12,9 km/h (3 Bft) 97,83 %
14.02.2020 23:54 6,6 C 5,6 C 5,0 C 89 % 1023,1 hPa 0,0 l/m 0 min 0 min 0 W/m 12,9 km/h (3 Bft) 97,87 %
14.02.2020 23:56 6,6 C 5,6 C 5,0 C 89 % 1023,1 hPa 0,0 l/m 0 min 0 min 0 W/m 12,9 km/h (3 Bft) 97,87 %
14.02.2020 23:58 6,5 C 5,6 C 5,0 C 89 % 1023,1 hPa 0,0 l/m 0 min 0 min 0 W/m 12,9 km/h (3 Bft) 97,87 %
_ Min-Zeit 07:22 04:26 04:34 15:58 00:00 - - - - 00:10 00:02
Minimum _ 5,2 C 4,4 C 3,9 C 79 % 1005,0 hPa - - - - 0,0 km/h (0 Bft) 4,76 %
_ Max-Zeit 15:12 14:38 14:42 00:00 19:34 05:18 15:58 00:08 12:20 06:38 00:00
Maximum _ 8,2 C 8,3 C 7,8 C 98 % 1024,0 hPa 0,2 l/m 2 min 4 min 153 W/m 22,5 km/h
S-SO (4 Bft)
100,00 %
Durchschnitt _ 6,8 C 6,1 C 5,5 C 90 % 1018,4 hPa #0,2 l/m #6 min. #2:04 h 72 W/m 8,9 km/h (2 Bft) 97,23 %
© 2020 W. Hausmann